Time,TemperatureF,DewpointF,PressureIn,WindDirection,WindDirectionDegrees,WindSpeedMPH,WindSpeedGustMPH,Humidity,HourlyPrecipIn,Conditions,Clouds,dailyrainin,SoftwareType,DateUTC
2013-05-09 00:00:00,66.6,45.7,30.03,South,184,0.0,0.0,47,0.00,,---,0.00,VWS V14.01,2013-05-09 04:00:00,
2013-05-09 00:01:00,66.6,45.7,30.03,NNE,18,0.0,0.0,47,0.00,,---,0.00,VWS V14.01,2013-05-09 04:01:00,
2013-05-09 00:06:00,66.6,45.7,30.03,SE,126,3.1,3.1,47,0.00,,---,0.00,VWS V14.01,2013-05-09 04:06:00,
2013-05-09 00:11:00,66.4,45.6,30.03,SE,140,3.1,6.3,47,0.00,,---,0.00,VWS V14.01,2013-05-09 04:11:00,
2013-05-09 00:16:00,66.2,45.4,30.03,WSW,252,0.0,3.6,47,0.00,,---,0.00,VWS V14.01,2013-05-09 04:16:00,
2013-05-09 00:21:00,66.2,45.4,30.03,ESE,121,2.2,5.4,47,0.00,,---,0.00,VWS V14.01,2013-05-09 04:21:00,
2013-05-09 00:26:00,66.2,45.4,30.03,East,93,4.0,4.0,47,0.00,,---,0.00,VWS V14.01,2013-05-09 04:26:00,
2013-05-09 00:31:00,66.2,45.4,30.03,ENE,57,2.2,2.7,47,0.00,,---,0.00,VWS V14.01,2013-05-09 04:31:00,
2013-05-09 00:36:00,66.0,45.2,30.03,WNW,286,4.0,4.0,47,0.00,,---,0.00,VWS V14.01,2013-05-09 04:36:00,
2013-05-09 00:41:00,66.2,45.4,30.03,SSE,161,4.0,4.0,47,0.00,,---,0.00,VWS V14.01,2013-05-09 04:41:00,
2013-05-09 00:46:00,66.2,46.0,30.03,SSE,155,4.0,4.0,48,0.00,,---,0.00,VWS V14.01,2013-05-09 04:46:00,
2013-05-09 00:51:00,66.2,46.0,30.00,SE,145,2.7,3.1,48,0.00,,---,0.00,VWS V14.01,2013-05-09 04:51:00,
2013-05-09 00:52:00,66.2,46.0,30.00,SE,145,2.7,2.7,48,0.00,,---,0.00,VWS V14.01,2013-05-09 04:52:00,
2013-05-09 00:56:00,66.2,46.5,30.00,SSE,162,2.7,2.7,49,0.00,,---,0.00,VWS V14.01,2013-05-09 04:56:00,
2013-05-09 00:57:00,66.2,46.5,30.00,WSW,257,3.1,4.0,49,0.00,,---,0.00,VWS V14.01,2013-05-09 04:57:00,
2013-05-09 01:01:00,66.2,46.5,30.00,SW,220,3.6,3.6,49,0.00,,---,0.00,VWS V14.01,2013-05-09 05:01:00,
2013-05-09 01:02:00,66.2,46.5,30.00,SSW,198,4.0,4.0,49,0.00,,---,0.00,VWS V14.01,2013-05-09 05:02:00,
2013-05-09 01:06:00,66.2,47.0,30.00,NW,316,2.2,2.2,50,0.00,,---,0.00,VWS V14.01,2013-05-09 05:06:00,
2013-05-09 01:07:00,66.2,47.0,30.00,East,86,2.2,2.2,50,0.00,,---,0.00,VWS V14.01,2013-05-09 05:07:00,
2013-05-09 01:11:00,66.2,47.0,30.00,SSW,211,2.7,2.7,50,0.00,,---,0.00,VWS V14.01,2013-05-09 05:11:00,
2013-05-09 01:12:00,66.2,47.0,30.00,SE,132,3.1,3.1,50,0.00,,---,0.00,VWS V14.01,2013-05-09 05:12:00,
2013-05-09 01:16:00,66.0,47.4,30.00,SW,230,2.2,3.1,51,0.00,,---,0.00,VWS V14.01,2013-05-09 05:16:00,
2013-05-09 01:17:00,66.0,47.4,30.00,SE,136,2.2,3.1,51,0.00,,---,0.00,VWS V14.01,2013-05-09 05:17:00,
2013-05-09 01:21:00,66.0,47.4,30.00,WSW,248,2.2,2.2,51,0.00,,---,0.00,VWS V14.01,2013-05-09 05:21:00,
2013-05-09 01:22:00,66.0,47.4,30.00,WSW,248,2.2,2.2,51,0.00,,---,0.00,VWS V14.01,2013-05-09 05:22:00,
2013-05-09 01:26:00,66.0,47.4,30.00,West,260,0.0,0.0,51,0.00,,---,0.00,VWS V14.01,2013-05-09 05:26:00,
2013-05-09 01:27:00,66.0,47.4,30.00,NE,45,2.7,2.7,51,0.00,,---,0.00,VWS V14.01,2013-05-09 05:27:00,
2013-05-09 01:31:00,66.0,47.4,30.00,NNE,21,0.0,2.7,51,0.00,,---,0.00,VWS V14.01,2013-05-09 05:31:00,
2013-05-09 01:32:00,65.8,47.7,30.00,NNE,21,0.0,2.7,52,0.00,,---,0.00,VWS V14.01,2013-05-09 05:32:00,
2013-05-09 01:36:00,65.8,47.7,30.00,West,261,3.6,3.6,52,0.00,,---,0.00,VWS V14.01,2013-05-09 05:36:00,
2013-05-09 01:37:00,65.8,47.7,30.00,West,261,3.6,3.6,52,0.00,,---,0.00,VWS V14.01,2013-05-09 05:37:00,
2013-05-09 01:41:00,65.8,48.2,30.00,WSW,249,0.0,3.6,53,0.00,,---,0.00,VWS V14.01,2013-05-09 05:41:00,
2013-05-09 01:42:00,65.8,48.2,30.00,SSE,155,2.7,2.7,53,0.00,,---,0.00,VWS V14.01,2013-05-09 05:42:00,
2013-05-09 01:43:00,65.8,48.2,30.00,SSE,155,2.7,2.7,53,0.00,,---,0.00,VWS V14.01,2013-05-09 05:43:00,
2013-05-09 01:46:00,65.8,48.2,30.00,WNW,295,0.0,0.0,53,0.00,,---,0.00,VWS V14.01,2013-05-09 05:46:00,
2013-05-09 01:47:00,65.8,48.2,30.00,WNW,295,0.0,0.0,53,0.00,,---,0.00,VWS V14.01,2013-05-09 05:47:00,
2013-05-09 01:48:00,65.8,48.2,30.00,South,177,2.7,2.7,53,0.00,,---,0.00,VWS V14.01,2013-05-09 05:48:00,
2013-05-09 01:51:00,65.8,48.2,30.00,South,174,2.2,3.1,53,0.00,,---,0.00,VWS V14.01,2013-05-09 05:51:00,
2013-05-09 01:52:00,65.8,48.2,30.00,South,174,2.2,3.1,53,0.00,,---,0.00,VWS V14.01,2013-05-09 05:52:00,
2013-05-09 01:53:00,65.8,48.2,30.00,SSW,198,2.7,3.1,53,0.00,,---,0.00,VWS V14.01,2013-05-09 05:53:00,
2013-05-09 01:57:00,65.8,48.8,30.00,SSE,163,0.0,0.0,54,0.00,,---,0.00,VWS V14.01,2013-05-09 05:57:00,
2013-05-09 01:58:00,65.8,48.8,30.00,WSW,241,0.0,0.0,54,0.00,,---,0.00,VWS V14.01,2013-05-09 05:58:00,
2013-05-09 02:02:00,65.8,48.8,30.00,SSW,204,0.0,2.7,54,0.00,,---,0.00,VWS V14.01,2013-05-09 06:02:00,
2013-05-09 02:03:00,65.8,48.8,30.00,WNW,286,0.0,0.0,54,0.00,,---,0.00,VWS V14.01,2013-05-09 06:03:00,
2013-05-09 02:07:00,65.7,48.6,30.00,SW,221,0.0,0.0,54,0.00,,---,0.00,VWS V14.01,2013-05-09 06:07:00,
2013-05-09 02:08:00,65.7,48.6,30.00,SSW,195,0.0,0.0,54,0.00,,---,0.00,VWS V14.01,2013-05-09 06:08:00,
2013-05-09 02:12:00,65.7,49.1,30.00,NNW,346,0.0,2.7,55,0.00,,---,0.00,VWS V14.01,2013-05-09 06:12:00,
2013-05-09 02:13:00,65.7,49.1,30.00,South,172,3.1,3.1,55,0.00,,---,0.00,VWS V14.01,2013-05-09 06:13:00,
2013-05-09 02:17:00,65.7,49.1,30.00,South,178,2.2,2.2,55,0.00,,---,0.00,VWS V14.01,2013-05-09 06:17:00,
2013-05-09 02:18:00,65.7,49.1,30.00,SSE,159,5.4,5.4,55,0.00,,---,0.00,VWS V14.01,2013-05-09 06:18:00,
2013-05-09 02:22:00,65.7,49.1,30.00,South,173,0.0,0.0,55,0.00,,---,0.00,VWS V14.01,2013-05-09 06:22:00,
2013-05-09 02:23:00,65.7,49.1,30.00,SSE,159,2.2,3.6,55,0.00,,---,0.00,VWS V14.01,2013-05-09 06:23:00,
2013-05-09 02:27:00,65.5,48.9,30.00,SE,130,2.7,3.1,55,0.00,,---,0.00,VWS V14.01,2013-05-09 06:27:00,
2013-05-09 02:28:00,65.5,48.9,30.00,SSW,199,4.0,4.0,55,0.00,,---,0.00,VWS V14.01,2013-05-09 06:28:00,
2013-05-09 02:32:00,65.7,49.6,30.00,SW,234,0.0,0.0,56,0.00,,---,0.00,VWS V14.01,2013-05-09 06:32:00,
2013-05-09 02:33:00,65.5,49.4,30.00,SSE,161,0.0,0.0,56,0.00,,---,0.00,VWS V14.01,2013-05-09 06:33:00,
2013-05-09 02:37:00,65.5,49.4,29.97,ESE,110,0.0,0.0,56,0.00,,---,0.00,VWS V14.01,2013-05-09 06:37:00,
2013-05-09 02:38:00,65.5,49.4,29.97,ESE,110,0.0,0.0,56,0.00,,---,0.00,VWS V14.01,2013-05-09 06:38:00,
2013-05-09 02:39:00,65.5,49.4,29.97,SSW,204,4.0,4.0,56,0.00,,---,0.00,VWS V14.01,2013-05-09 06:39:00,
2013-05-09 02:42:00,65.5,49.4,29.97,WSW,243,0.0,0.0,56,0.00,,---,0.00,VWS V14.01,2013-05-09 06:42:00,
2013-05-09 02:43:00,65.5,49.4,29.97,WSW,243,0.0,0.0,56,0.00,,---,0.00,VWS V14.01,2013-05-09 06:43:00,
2013-05-09 02:44:00,65.5,49.4,29.97,WSW,243,0.0,0.0,56,0.00,,---,0.00,VWS V14.01,2013-05-09 06:44:00,
2013-05-09 02:47:00,65.5,49.4,29.97,SW,236,0.0,0.0,56,0.00,,---,0.00,VWS V14.01,2013-05-09 06:47:00,
2013-05-09 02:48:00,65.5,49.4,29.97,WNW,283,3.1,3.1,56,0.00,,---,0.00,VWS V14.01,2013-05-09 06:48:00,
2013-05-09 02:49:00,65.5,49.4,29.97,WNW,283,3.1,3.1,56,0.00,,---,0.00,VWS V14.01,2013-05-09 06:49:00,
2013-05-09 02:52:00,65.5,49.4,29.97,SSW,207,4.0,4.0,56,0.00,,---,0.00,VWS V14.01,2013-05-09 06:52:00,
2013-05-09 02:53:00,65.5,49.4,29.97,SW,216,2.2,3.1,56,0.00,,---,0.00,VWS V14.01,2013-05-09 06:53:00,
2013-05-09 02:54:00,65.5,49.4,29.97,SE,146,3.1,3.1,56,0.00,,---,0.00,VWS V14.01,2013-05-09 06:54:00,
2013-05-09 02:57:00,65.5,48.9,29.97,East,91,0.0,0.0,55,0.00,,---,0.00,VWS V14.01,2013-05-09 06:57:00,
2013-05-09 02:58:00,65.5,48.9,29.97,SSW,203,2.7,2.7,55,0.00,,---,0.00,VWS V14.01,2013-05-09 06:58:00,
2013-05-09 02:59:00,65.5,48.9,29.97,SSW,208,0.0,2.7,55,0.00,,---,0.00,VWS V14.01,2013-05-09 06:59:00,
2013-05-09 03:02:00,65.7,49.1,29.97,SSE,155,3.1,3.6,55,0.00,,---,0.00,VWS V14.01,2013-05-09 07:02:00,
2013-05-09 03:03:00,65.7,49.1,29.97,SSE,160,6.7,6.7,55,0.00,,---,0.00,VWS V14.01,2013-05-09 07:03:00,
2013-05-09 03:04:00,65.7,49.1,29.97,WSW,238,0.0,6.7,55,0.00,,---,0.00,VWS V14.01,2013-05-09 07:04:00,
2013-05-09 03:07:00,65.7,49.1,29.97,North,353,0.0,0.0,55,0.00,,---,0.00,VWS V14.01,2013-05-09 07:07:00,
2013-05-09 03:08:00,65.7,49.1,29.97,North,353,0.0,0.0,55,0.00,,---,0.00,VWS V14.01,2013-05-09 07:08:00,
2013-05-09 03:09:00,65.7,49.1,29.97,WNW,288,4.0,4.0,55,0.00,,---,0.00,VWS V14.01,2013-05-09 07:09:00,
2013-05-09 03:12:00,65.7,49.1,29.97,WNW,299,2.7,3.6,55,0.00,,---,0.00,VWS V14.01,2013-05-09 07:12:00,
2013-05-09 03:13:00,65.7,49.1,29.97,West,280,5.4,5.8,55,0.00,,---,0.00,VWS V14.01,2013-05-09 07:13:00,
2013-05-09 03:14:00,65.7,49.1,29.97,West,280,5.4,5.8,55,0.00,,---,0.00,VWS V14.01,2013-05-09 07:14:00,
2013-05-09 03:17:00,65.7,49.1,29.97,SW,215,2.2,2.7,55,0.00,,---,0.00,VWS V14.01,2013-05-09 07:17:00,
2013-05-09 03:18:00,65.5,48.9,29.97,SSW,197,0.0,2.2,55,0.00,,---,0.00,VWS V14.01,2013-05-09 07:18:00,
2013-05-09 03:19:00,65.5,48.9,29.97,SSW,197,0.0,0.0,55,0.00,,---,0.00,VWS V14.01,2013-05-09 07:19:00,
2013-05-09 03:22:00,65.5,48.9,29.97,SSW,200,0.0,0.0,55,0.00,,---,0.00,VWS V14.01,2013-05-09 07:22:00,
2013-05-09 03:23:00,65.5,48.9,29.97,WSW,245,2.7,2.7,55,0.00,,---,0.00,VWS V14.01,2013-05-09 07:23:00,
2013-05-09 03:24:00,65.5,48.9,29.97,WSW,245,2.7,2.7,55,0.00,,---,0.00,VWS V14.01,2013-05-09 07:24:00,
2013-05-09 03:28:00,65.5,48.9,29.97,WNW,297,2.7,4.9,55,0.00,,---,0.00,VWS V14.01,2013-05-09 07:28:00,
2013-05-09 03:29:00,65.5,48.9,29.97,North,353,2.7,5.4,55,0.00,,---,0.00,VWS V14.01,2013-05-09 07:29:00,
2013-05-09 03:33:00,65.3,48.7,29.97,West,268,0.0,0.0,55,0.00,,---,0.00,VWS V14.01,2013-05-09 07:33:00,
2013-05-09 03:34:00,65.3,48.7,29.97,West,269,0.0,0.0,55,0.00,,---,0.00,VWS V14.01,2013-05-09 07:34:00,
2013-05-09 03:38:00,65.3,48.7,29.97,WNW,303,0.0,0.0,55,0.00,,---,0.00,VWS V14.01,2013-05-09 07:38:00,
2013-05-09 03:39:00,65.1,48.6,29.97,WNW,303,0.0,0.0,55,0.00,,---,0.00,VWS V14.01,2013-05-09 07:39:00,
2013-05-09 03:43:00,65.1,48.6,29.97,WNW,303,0.0,0.0,55,0.00,,---,0.00,VWS V14.01,2013-05-09 07:43:00,
2013-05-09 03:44:00,65.1,48.6,29.97,WNW,303,0.0,0.0,55,0.00,,---,0.00,VWS V14.01,2013-05-09 07:44:00,
2013-05-09 03:48:00,64.9,48.4,29.97,WNW,303,0.0,0.0,55,0.00,,---,0.00,VWS V14.01,2013-05-09 07:48:00,
2013-05-09 03:49:00,64.9,48.4,29.97,WNW,303,0.0,0.0,55,0.00,,---,0.00,VWS V14.01,2013-05-09 07:49:00,
2013-05-09 03:53:00,64.8,48.2,30.00,WNW,303,0.0,0.0,55,0.00,,---,0.00,VWS V14.01,2013-05-09 07:53:00,
2013-05-09 03:54:00,64.8,48.2,30.00,WNW,303,0.0,0.0,55,0.00,,---,0.00,VWS V14.01,2013-05-09 07:54:00,
2013-05-09 03:58:00,64.6,48.1,30.00,WNW,303,0.0,0.0,55,0.00,,---,0.00,VWS V14.01,2013-05-09 07:58:00,
2013-05-09 03:59:00,64.6,48.1,30.00,WNW,303,0.0,0.0,55,0.00,,---,0.00,VWS V14.01,2013-05-09 07:59:00,
2013-05-09 04:03:00,64.2,48.2,30.00,WNW,303,0.0,0.0,56,0.00,,---,0.00,VWS V14.01,2013-05-09 08:03:00,
2013-05-09 04:04:00,64.2,48.2,30.00,WNW,303,0.0,0.0,56,0.00,,---,0.00,VWS V14.01,2013-05-09 08:04:00,
2013-05-09 04:05:00,64.2,48.2,30.00,WNW,303,0.0,0.0,56,0.00,,---,0.00,VWS V14.01,2013-05-09 08:05:00,
2013-05-09 04:08:00,64.0,48.0,29.97,WNW,303,0.0,0.0,56,0.00,,---,0.00,VWS V14.01,2013-05-09 08:08:00,
2013-05-09 04:09:00,64.0,48.0,29.97,WNW,303,0.0,0.0,56,0.00,,---,0.00,VWS V14.01,2013-05-09 08:09:00,
2013-05-09 04:10:00,64.0,48.0,29.97,WNW,303,0.0,0.0,56,0.00,,---,0.00,VWS V14.01,2013-05-09 08:10:00,
2013-05-09 04:13:00,63.9,47.9,29.97,WNW,303,0.0,0.0,56,0.00,,---,0.00,VWS V14.01,2013-05-09 08:13:00,
2013-05-09 04:14:00,63.9,47.9,29.97,WNW,303,0.0,0.0,56,0.00,,---,0.00,VWS V14.01,2013-05-09 08:14:00,
2013-05-09 04:15:00,63.9,47.9,29.97,WNW,303,0.0,0.0,56,0.00,,---,0.00,VWS V14.01,2013-05-09 08:15:00,
2013-05-09 04:18:00,63.7,47.7,29.97,WNW,303,0.0,0.0,56,0.00,,---,0.00,VWS V14.01,2013-05-09 08:18:00,
2013-05-09 04:19:00,63.7,47.7,29.97,WNW,303,0.0,0.0,56,0.00,,---,0.00,VWS V14.01,2013-05-09 08:19:00,
2013-05-09 04:20:00,63.5,47.5,29.97,WNW,303,0.0,0.0,56,0.00,,---,0.00,VWS V14.01,2013-05-09 08:20:00,
2013-05-09 04:23:00,63.5,47.5,29.97,WNW,303,0.0,0.0,56,0.00,,---,0.00,VWS V14.01,2013-05-09 08:23:00,
2013-05-09 04:24:00,63.5,47.5,29.97,WNW,303,0.0,0.0,56,0.00,,---,0.00,VWS V14.01,2013-05-09 08:24:00,
2013-05-09 04:25:00,63.5,47.5,29.97,WNW,303,0.0,0.0,56,0.00,,---,0.00,VWS V14.01,2013-05-09 08:25:00,
2013-05-09 04:28:00,63.3,47.8,29.97,WNW,303,0.0,0.0,57,0.00,,---,0.00,VWS V14.01,2013-05-09 08:28:00,
2013-05-09 04:29:00,63.3,47.8,29.97,WNW,303,0.0,0.0,57,0.00,,---,0.00,VWS V14.01,2013-05-09 08:29:00,
2013-05-09 04:30:00,63.3,47.8,29.97,WNW,303,0.0,0.0,57,0.00,,---,0.00,VWS V14.01,2013-05-09 08:30:00,
2013-05-09 04:33:00,63.0,47.5,29.97,WNW,303,0.0,0.0,57,0.00,,---,0.00,VWS V14.01,2013-05-09 08:33:00,
2013-05-09 04:34:00,63.0,47.5,29.97,WNW,303,0.0,0.0,57,0.00,,---,0.00,VWS V14.01,2013-05-09 08:34:00,
2013-05-09 04:35:00,63.0,47.5,29.97,WNW,303,0.0,0.0,57,0.00,,---,0.00,VWS V14.01,2013-05-09 08:35:00,
2013-05-09 04:36:00,63.0,47.5,29.97,WNW,303,0.0,0.0,57,0.00,,---,0.00,VWS V14.01,2013-05-09 08:36:00,
2013-05-09 04:38:00,62.8,47.3,29.97,WNW,303,0.0,0.0,57,0.00,,---,0.00,VWS V14.01,2013-05-09 08:38:00,
2013-05-09 04:39:00,62.8,47.3,29.97,WNW,303,0.0,0.0,57,0.00,,---,0.00,VWS V14.01,2013-05-09 08:39:00,
2013-05-09 04:40:00,62.8,47.3,29.97,WNW,303,0.0,0.0,57,0.00,,---,0.00,VWS V14.01,2013-05-09 08:40:00,
2013-05-09 04:41:00,62.8,47.3,29.97,WNW,303,0.0,0.0,57,0.00,,---,0.00,VWS V14.01,2013-05-09 08:41:00,
2013-05-09 04:43:00,62.6,47.2,29.97,WNW,303,0.0,0.0,57,0.00,,---,0.00,VWS V14.01,2013-05-09 08:43:00,
2013-05-09 04:45:00,62.4,47.5,29.97,WNW,303,0.0,0.0,58,0.00,,---,0.00,VWS V14.01,2013-05-09 08:45:00,
2013-05-09 04:46:00,62.4,47.5,29.97,WNW,303,0.0,0.0,58,0.00,,---,0.00,VWS V14.01,2013-05-09 08:46:00,
2013-05-09 04:49:00,62.2,47.3,29.97,WNW,303,0.0,0.0,58,0.00,,---,0.00,VWS V14.01,2013-05-09 08:49:00,
2013-05-09 04:50:00,62.2,47.3,29.97,WNW,303,0.0,0.0,58,0.00,,---,0.00,VWS V14.01,2013-05-09 08:50:00,
2013-05-09 04:51:00,62.2,47.3,29.97,WNW,303,0.0,0.0,58,0.00,,---,0.00,VWS V14.01,2013-05-09 08:51:00,
2013-05-09 04:54:00,62.1,47.1,29.97,WNW,303,0.0,0.0,58,0.00,,---,0.00,VWS V14.01,2013-05-09 08:54:00,
2013-05-09 04:55:00,62.1,47.1,29.97,WNW,303,0.0,0.0,58,0.00,,---,0.00,VWS V14.01,2013-05-09 08:55:00,
2013-05-09 04:56:00,61.9,47.0,29.97,WNW,303,0.0,0.0,58,0.00,,---,0.00,VWS V14.01,2013-05-09 08:56:00,
2013-05-09 04:59:00,61.7,46.8,29.97,WNW,303,0.0,0.0,58,0.00,,---,0.00,VWS V14.01,2013-05-09 08:59:00,
2013-05-09 05:00:00,61.7,47.2,29.97,WNW,303,0.0,0.0,59,0.00,,---,0.00,VWS V14.01,2013-05-09 09:00:00,
2013-05-09 05:01:00,61.7,47.2,29.97,WNW,303,0.0,0.0,59,0.00,,---,0.00,VWS V14.01,2013-05-09 09:01:00,
2013-05-09 05:04:00,61.3,46.9,29.97,WNW,303,0.0,0.0,59,0.00,,---,0.00,VWS V14.01,2013-05-09 09:04:00,
2013-05-09 05:05:00,61.3,46.9,29.97,WNW,303,0.0,0.0,59,0.00,,---,0.00,VWS V14.01,2013-05-09 09:05:00,
2013-05-09 05:06:00,61.2,46.7,29.97,WNW,303,0.0,0.0,59,0.00,,---,0.00,VWS V14.01,2013-05-09 09:06:00,
2013-05-09 05:09:00,61.2,46.7,29.97,WNW,303,0.0,0.0,59,0.00,,---,0.00,VWS V14.01,2013-05-09 09:09:00,
2013-05-09 05:10:00,61.0,46.6,29.97,WNW,303,0.0,0.0,59,0.00,,---,0.00,VWS V14.01,2013-05-09 09:10:00,
2013-05-09 05:11:00,61.0,46.6,29.97,WNW,303,0.0,0.0,59,0.00,,---,0.00,VWS V14.01,2013-05-09 09:11:00,
2013-05-09 05:14:00,60.8,46.4,29.97,WNW,303,0.0,0.0,59,0.00,,---,0.00,VWS V14.01,2013-05-09 09:14:00,
2013-05-09 05:15:00,60.8,46.4,29.97,WNW,303,0.0,0.0,59,0.00,,---,0.00,VWS V14.01,2013-05-09 09:15:00,
2013-05-09 05:16:00,60.6,46.7,29.97,WNW,303,0.0,0.0,60,0.00,,---,0.00,VWS V14.01,2013-05-09 09:16:00,
2013-05-09 05:19:00,60.6,46.7,30.00,WNW,303,0.0,0.0,60,0.00,,---,0.00,VWS V14.01,2013-05-09 09:19:00,
2013-05-09 05:20:00,60.6,46.7,30.00,WNW,303,0.0,0.0,60,0.00,,---,0.00,VWS V14.01,2013-05-09 09:20:00,
2013-05-09 05:21:00,60.6,46.7,30.00,WNW,303,0.0,0.0,60,0.00,,---,0.00,VWS V14.01,2013-05-09 09:21:00,
2013-05-09 05:24:00,60.6,46.7,30.00,WNW,303,0.0,0.0,60,0.00,,---,0.00,VWS V14.01,2013-05-09 09:24:00,
2013-05-09 05:25:00,60.3,46.8,30.00,WNW,303,0.0,0.0,61,0.00,,---,0.00,VWS V14.01,2013-05-09 09:25:00,
2013-05-09 05:26:00,60.3,46.8,30.00,WNW,303,0.0,0.0,61,0.00,,---,0.00,VWS V14.01,2013-05-09 09:26:00,
2013-05-09 05:29:00,60.3,46.8,30.00,WNW,303,0.0,0.0,61,0.00,,---,0.00,VWS V14.01,2013-05-09 09:29:00,
2013-05-09 05:30:00,60.1,46.6,30.00,WNW,303,0.0,0.0,61,0.00,,---,0.00,VWS V14.01,2013-05-09 09:30:00,
2013-05-09 05:31:00,60.1,46.6,30.00,WNW,303,0.0,0.0,61,0.00,,---,0.00,VWS V14.01,2013-05-09 09:31:00,
2013-05-09 05:34:00,59.9,46.4,30.00,WNW,303,0.0,0.0,61,0.00,,---,0.00,VWS V14.01,2013-05-09 09:34:00,
2013-05-09 05:35:00,59.9,46.4,30.00,WNW,303,0.0,0.0,61,0.00,,---,0.00,VWS V14.01,2013-05-09 09:35:00,
2013-05-09 05:36:00,59.9,46.4,30.00,WNW,303,0.0,0.0,61,0.00,,---,0.00,VWS V14.01,2013-05-09 09:36:00,
2013-05-09 05:37:00,59.9,46.4,30.00,WNW,303,0.0,0.0,61,0.00,,---,0.00,VWS V14.01,2013-05-09 09:37:00,
2013-05-09 05:39:00,59.7,46.7,30.00,WNW,303,0.0,0.0,62,0.00,,---,0.00,VWS V14.01,2013-05-09 09:39:00,
2013-05-09 05:40:00,59.5,46.5,30.00,WNW,303,0.0,0.0,62,0.00,,---,0.00,VWS V14.01,2013-05-09 09:40:00,
2013-05-09 05:41:00,59.5,46.5,30.00,WNW,303,0.0,0.0,62,0.00,,---,0.00,VWS V14.01,2013-05-09 09:41:00,
2013-05-09 05:42:00,59.5,46.5,30.00,WNW,303,0.0,0.0,62,0.00,,---,0.00,VWS V14.01,2013-05-09 09:42:00,
2013-05-09 05:44:00,59.5,46.5,30.00,WNW,303,0.0,0.0,62,0.00,,---,0.00,VWS V14.01,2013-05-09 09:44:00,
2013-05-09 05:45:00,59.5,46.5,30.00,WNW,303,0.0,0.0,62,0.00,,---,0.00,VWS V14.01,2013-05-09 09:45:00,
2013-05-09 05:46:00,59.5,46.5,30.00,WNW,303,0.0,0.0,62,0.00,,---,0.00,VWS V14.01,2013-05-09 09:46:00,
2013-05-09 05:47:00,59.4,46.8,30.00,WNW,303,0.0,0.0,63,0.00,,---,0.00,VWS V14.01,2013-05-09 09:47:00,
2013-05-09 05:49:00,59.4,46.8,30.00,WNW,303,0.0,0.0,63,0.00,,---,0.00,VWS V14.01,2013-05-09 09:49:00,
2013-05-09 05:50:00,59.4,46.8,30.00,WNW,303,0.0,0.0,63,0.00,,---,0.00,VWS V14.01,2013-05-09 09:50:00,
2013-05-09 05:51:00,59.2,46.6,30.00,WNW,303,0.0,0.0,63,0.00,,---,0.00,VWS V14.01,2013-05-09 09:51:00,
2013-05-09 05:52:00,59.2,46.6,30.00,WNW,303,0.0,0.0,63,0.00,,---,0.00,VWS V14.01,2013-05-09 09:52:00,
2013-05-09 05:54:00,59.2,46.6,30.00,WNW,303,0.0,0.0,63,0.00,,---,0.00,VWS V14.01,2013-05-09 09:54:00,
2013-05-09 05:55:00,59.2,46.6,30.00,WNW,303,0.0,0.0,63,0.00,,---,0.00,VWS V14.01,2013-05-09 09:55:00,
2013-05-09 05:56:00,59.2,46.6,30.00,WNW,303,0.0,0.0,63,0.00,,---,0.00,VWS V14.01,2013-05-09 09:56:00,
2013-05-09 05:57:00,59.2,46.6,30.00,WNW,303,0.0,0.0,63,0.00,,---,0.00,VWS V14.01,2013-05-09 09:57:00,
2013-05-09 05:59:00,59.0,46.8,30.00,WNW,303,0.0,0.0,64,0.00,,---,0.00,VWS V14.01,2013-05-09 09:59:00,
2013-05-09 06:00:00,59.0,46.8,30.00,WNW,303,0.0,0.0,64,0.00,,---,0.00,VWS V14.01,2013-05-09 10:00:00,
2013-05-09 06:01:00,59.0,46.8,30.00,WNW,303,0.0,0.0,64,0.00,,---,0.00,VWS V14.01,2013-05-09 10:01:00,
2013-05-09 06:02:00,59.0,47.3,30.00,WNW,303,0.0,0.0,65,0.00,,---,0.00,VWS V14.01,2013-05-09 10:02:00,
2013-05-09 06:04:00,59.0,47.3,30.00,WNW,303,0.0,0.0,65,0.00,,---,0.00,VWS V14.01,2013-05-09 10:04:00,
2013-05-09 06:05:00,59.0,47.3,30.00,WNW,303,0.0,0.0,65,0.00,,---,0.00,VWS V14.01,2013-05-09 10:05:00,
2013-05-09 06:06:00,59.0,47.3,30.00,WNW,303,0.0,0.0,65,0.00,,---,0.00,VWS V14.01,2013-05-09 10:06:00,
2013-05-09 06:07:00,58.8,47.1,30.00,WNW,303,0.0,0.0,65,0.00,,---,0.00,VWS V14.01,2013-05-09 10:07:00,
2013-05-09 06:09:00,58.8,47.1,30.00,WNW,303,0.0,0.0,65,0.00,,---,0.00,VWS V14.01,2013-05-09 10:09:00,
2013-05-09 06:11:00,58.8,47.1,30.00,WNW,303,0.0,0.0,65,0.00,,---,0.00,VWS V14.01,2013-05-09 10:11:00,
2013-05-09 06:13:00,58.6,47.3,30.00,WNW,303,0.0,0.0,66,0.00,,---,0.00,VWS V14.01,2013-05-09 10:13:00,
2013-05-09 06:14:00,58.6,47.3,30.00,WNW,303,0.0,0.0,66,0.00,,---,0.00,VWS V14.01,2013-05-09 10:14:00,
2013-05-09 06:16:00,58.6,47.3,30.00,WNW,303,0.0,0.0,66,0.00,,---,0.00,VWS V14.01,2013-05-09 10:16:00,
2013-05-09 06:18:00,58.5,47.2,30.00,WNW,303,0.0,0.0,66,0.00,,---,0.00,VWS V14.01,2013-05-09 10:18:00,
2013-05-09 06:19:00,58.5,47.2,30.00,WNW,303,0.0,0.0,66,0.00,,---,0.00,VWS V14.01,2013-05-09 10:19:00,
2013-05-09 06:21:00,58.5,47.2,30.00,WNW,303,0.0,0.0,66,0.00,,---,0.00,VWS V14.01,2013-05-09 10:21:00,
2013-05-09 06:23:00,58.3,47.4,30.00,WNW,303,0.0,0.0,67,0.00,,---,0.00,VWS V14.01,2013-05-09 10:23:00,
2013-05-09 06:24:00,58.3,47.4,30.00,WNW,303,0.0,0.0,67,0.00,,---,0.00,VWS V14.01,2013-05-09 10:24:00,
2013-05-09 06:26:00,58.3,47.4,30.00,WNW,303,0.0,0.0,67,0.00,,---,0.00,VWS V14.01,2013-05-09 10:26:00,
2013-05-09 06:28:00,58.3,47.4,30.00,WNW,303,0.0,0.0,67,0.00,,---,0.00,VWS V14.01,2013-05-09 10:28:00,
2013-05-09 06:29:00,58.3,47.8,30.00,WNW,303,0.0,0.0,68,0.00,,---,0.00,VWS V14.01,2013-05-09 10:29:00,
2013-05-09 06:31:00,58.3,47.8,30.00,WNW,303,0.0,0.0,68,0.00,,---,0.00,VWS V14.01,2013-05-09 10:31:00,
2013-05-09 06:33:00,58.3,47.8,30.00,WNW,303,0.0,0.0,68,0.00,,---,0.00,VWS V14.01,2013-05-09 10:33:00,
2013-05-09 06:35:00,58.3,47.8,30.00,WNW,303,0.0,0.0,68,0.00,,---,0.00,VWS V14.01,2013-05-09 10:35:00,
2013-05-09 06:36:00,58.3,47.8,30.00,WNW,303,0.0,0.0,68,0.00,,---,0.00,VWS V14.01,2013-05-09 10:36:00,
2013-05-09 06:38:00,58.3,47.8,30.00,WNW,303,0.0,0.0,68,0.00,,---,0.00,VWS V14.01,2013-05-09 10:38:00,
2013-05-09 06:40:00,58.3,47.8,30.00,WNW,303,0.0,0.0,68,0.00,,---,0.00,VWS V14.01,2013-05-09 10:40:00,
2013-05-09 06:41:00,58.3,47.8,30.00,WNW,303,0.0,0.0,68,0.00,,---,0.00,VWS V14.01,2013-05-09 10:41:00,
2013-05-09 06:43:00,58.3,48.2,30.00,WNW,303,0.0,0.0,69,0.00,,---,0.00,VWS V14.01,2013-05-09 10:43:00,
2013-05-09 06:45:00,58.3,48.2,30.00,WNW,303,0.0,0.0,69,0.00,,---,0.00,VWS V14.01,2013-05-09 10:45:00,
2013-05-09 06:46:00,58.3,48.2,30.00,WNW,303,0.0,0.0,69,0.00,,---,0.00,VWS V14.01,2013-05-09 10:46:00,
2013-05-09 06:48:00,58.5,48.7,30.00,WNW,303,0.0,0.0,70,0.00,,---,0.00,VWS V14.01,2013-05-09 10:48:00,
2013-05-09 06:50:00,58.5,48.7,30.00,WNW,303,0.0,0.0,70,0.00,,---,0.00,VWS V14.01,2013-05-09 10:50:00,
2013-05-09 06:51:00,58.6,49.3,30.00,WNW,303,0.0,0.0,71,0.00,,---,0.00,VWS V14.01,2013-05-09 10:51:00,
2013-05-09 06:52:00,58.6,49.3,30.00,WNW,303,0.0,0.0,71,0.00,,---,0.00,VWS V14.01,2013-05-09 10:52:00,
2013-05-09 06:53:00,58.8,49.5,30.00,WNW,303,0.0,0.0,71,0.00,,---,0.00,VWS V14.01,2013-05-09 10:53:00,
2013-05-09 06:55:00,58.8,49.5,30.00,WNW,303,0.0,0.0,71,0.00,,---,0.00,VWS V14.01,2013-05-09 10:55:00,
2013-05-09 06:56:00,58.8,49.5,30.00,WNW,303,0.0,0.0,71,0.00,,---,0.00,VWS V14.01,2013-05-09 10:56:00,
2013-05-09 06:57:00,58.8,49.5,30.00,WNW,303,0.0,0.0,71,0.00,,---,0.00,VWS V14.01,2013-05-09 10:57:00,
2013-05-09 06:58:00,58.8,49.5,30.00,WNW,303,0.0,0.0,71,0.00,,---,0.00,VWS V14.01,2013-05-09 10:58:00,
2013-05-09 07:00:00,58.8,49.5,30.00,WNW,303,0.0,0.0,71,0.00,,---,0.00,VWS V14.01,2013-05-09 11:00:00,
2013-05-09 07:01:00,59.2,50.2,30.00,WNW,303,0.0,0.0,72,0.00,,---,0.00,VWS V14.01,2013-05-09 11:01:00,
2013-05-09 07:02:00,59.2,50.2,30.00,WNW,303,0.0,0.0,72,0.00,,---,0.00,VWS V14.01,2013-05-09 11:02:00,
2013-05-09 07:03:00,59.2,50.2,30.00,WNW,303,0.0,0.0,72,0.00,,---,0.00,VWS V14.01,2013-05-09 11:03:00,
2013-05-09 07:05:00,59.2,50.2,30.00,WNW,303,0.0,0.0,72,0.00,,---,0.00,VWS V14.01,2013-05-09 11:05:00,
2013-05-09 07:06:00,59.2,50.2,30.00,WNW,303,0.0,0.0,72,0.00,,---,0.00,VWS V14.01,2013-05-09 11:06:00,
2013-05-09 07:07:00,59.2,50.2,30.00,NW,305,0.0,0.0,72,0.00,,---,0.00,VWS V14.01,2013-05-09 11:07:00,
2013-05-09 07:08:00,59.2,50.2,30.00,NW,305,0.0,0.0,72,0.00,,---,0.00,VWS V14.01,2013-05-09 11:08:00,
2013-05-09 07:10:00,59.2,50.2,30.00,NW,305,0.0,0.0,72,0.00,,---,0.00,VWS V14.01,2013-05-09 11:10:00,
2013-05-09 07:11:00,60.1,51.8,30.00,NW,305,0.0,0.0,74,0.00,,---,0.00,VWS V14.01,2013-05-09 11:11:00,
2013-05-09 07:12:00,60.1,51.8,30.00,West,280,0.0,0.0,74,0.00,,---,0.00,VWS V14.01,2013-05-09 11:12:00,
2013-05-09 07:13:00,60.3,52.0,30.00,West,280,0.0,0.0,74,0.00,,---,0.00,VWS V14.01,2013-05-09 11:13:00,
2013-05-09 07:15:00,60.4,52.1,30.00,West,280,0.0,0.0,74,0.00,,---,0.00,VWS V14.01,2013-05-09 11:15:00,
2013-05-09 07:16:00,60.4,52.1,30.00,West,280,0.0,0.0,74,0.00,,---,0.00,VWS V14.01,2013-05-09 11:16:00,
2013-05-09 07:17:00,60.4,52.1,30.00,West,280,0.0,0.0,74,0.00,,---,0.00,VWS V14.01,2013-05-09 11:17:00,
2013-05-09 07:18:00,60.4,52.1,30.00,West,259,0.0,0.0,74,0.00,,---,0.00,VWS V14.01,2013-05-09 11:18:00,
2013-05-09 07:23:00,61.3,53.7,30.00,West,260,2.2,2.2,76,0.00,,---,0.00,VWS V14.01,2013-05-09 11:23:00,
2013-05-09 07:24:00,61.3,53.7,30.00,West,260,0.0,2.2,76,0.00,,---,0.00,VWS V14.01,2013-05-09 11:24:00,
2013-05-09 07:28:00,62.1,54.8,30.00,SW,227,2.2,4.0,77,0.00,,---,0.00,VWS V14.01,2013-05-09 11:28:00,
2013-05-09 07:29:00,62.1,54.8,30.00,WSW,251,0.0,4.0,77,0.00,,---,0.00,VWS V14.01,2013-05-09 11:29:00,
2013-05-09 07:33:00,62.8,55.5,30.00,West,271,4.9,4.9,77,0.00,,---,0.00,VWS V14.01,2013-05-09 11:33:00,
2013-05-09 07:34:00,62.8,55.5,30.00,West,271,4.9,4.9,77,0.00,,---,0.00,VWS V14.01,2013-05-09 11:34:00,
2013-05-09 07:38:00,63.5,56.2,30.00,West,279,0.0,2.7,77,0.00,,---,0.00,VWS V14.01,2013-05-09 11:38:00,
2013-05-09 07:39:00,63.5,56.2,30.00,WSW,252,0.0,2.7,77,0.00,,---,0.00,VWS V14.01,2013-05-09 11:39:00,
2013-05-09 07:43:00,64.2,56.5,30.00,West,275,0.0,0.0,76,0.00,,---,0.00,VWS V14.01,2013-05-09 11:43:00,
2013-05-09 07:44:00,64.2,56.5,30.00,West,275,0.0,0.0,76,0.00,,---,0.00,VWS V14.01,2013-05-09 11:44:00,
2013-05-09 07:48:00,64.9,57.2,30.00,West,277,0.0,2.7,76,0.00,,---,0.00,VWS V14.01,2013-05-09 11:48:00,
2013-05-09 07:49:00,64.9,57.2,30.00,West,277,0.0,2.7,76,0.00,,---,0.00,VWS V14.01,2013-05-09 11:49:00,
2013-05-09 07:54:00,65.5,57.0,30.00,West,281,3.1,5.4,74,0.00,,---,0.00,VWS V14.01,2013-05-09 11:54:00,
2013-05-09 07:59:00,66.0,56.7,30.00,West,274,0.0,0.0,72,0.00,,---,0.00,VWS V14.01,2013-05-09 11:59:00,
2013-05-09 08:04:00,66.4,56.7,30.00,WSW,258,5.8,5.8,71,0.00,,---,0.00,VWS V14.01,2013-05-09 12:04:00,
2013-05-09 08:05:00,66.6,56.9,30.00,WSW,250,2.7,5.8,71,0.00,,---,0.00,VWS V14.01,2013-05-09 12:05:00,
2013-05-09 08:09:00,66.7,55.0,30.00,West,275,5.4,8.1,66,0.00,,---,0.00,VWS V14.01,2013-05-09 12:09:00,
2013-05-09 08:10:00,66.7,54.6,30.00,West,270,3.6,3.6,65,0.00,,---,0.00,VWS V14.01,2013-05-09 12:10:00,
2013-05-09 08:14:00,67.1,54.1,30.00,West,269,4.0,4.0,63,0.00,,---,0.00,VWS V14.01,2013-05-09 12:14:00,
2013-05-09 08:15:00,67.1,53.7,30.00,WSW,250,2.2,2.7,62,0.00,,---,0.00,VWS V14.01,2013-05-09 12:15:00,
2013-05-09 08:19:00,67.3,52.9,30.03,WNW,297,4.0,4.9,60,0.00,,---,0.00,VWS V14.01,2013-05-09 12:19:00,
2013-05-09 08:20:00,67.5,52.7,30.03,SW,218,0.0,2.7,59,0.00,,---,0.00,VWS V14.01,2013-05-09 12:20:00,
2013-05-09 08:24:00,67.5,48.7,30.03,SW,231,0.0,0.0,51,0.00,,---,0.00,VWS V14.01,2013-05-09 12:24:00,
2013-05-09 08:25:00,67.6,48.9,30.03,WNW,288,4.9,4.9,51,0.00,,---,0.00,VWS V14.01,2013-05-09 12:25:00,
2013-05-09 08:29:00,67.8,48.5,30.03,WSW,243,3.6,5.8,50,0.00,,---,0.00,VWS V14.01,2013-05-09 12:29:00,
2013-05-09 08:30:00,68.0,48.2,30.03,WSW,254,5.8,7.6,49,0.00,,---,0.00,VWS V14.01,2013-05-09 12:30:00,
2013-05-09 08:34:00,68.2,47.8,30.03,West,272,2.2,3.6,48,0.00,,---,0.00,VWS V14.01,2013-05-09 12:34:00,
2013-05-09 08:35:00,68.2,47.8,30.03,SSW,198,0.0,2.2,48,0.00,,---,0.00,VWS V14.01,2013-05-09 12:35:00,
2013-05-09 08:39:00,68.5,48.1,30.03,West,280,3.6,3.6,48,0.00,,---,0.00,VWS V14.01,2013-05-09 12:39:00,
2013-05-09 08:40:00,68.7,48.3,30.03,WNW,295,2.2,3.6,48,0.00,,---,0.00,VWS V14.01,2013-05-09 12:40:00,
2013-05-09 08:44:00,69.1,48.0,30.03,SW,224,2.7,2.7,47,0.00,,---,0.00,VWS V14.01,2013-05-09 12:44:00,
2013-05-09 08:45:00,69.1,48.0,30.03,SE,127,2.2,2.7,47,0.00,,---,0.00,VWS V14.01,2013-05-09 12:45:00,
2013-05-09 08:49:00,69.1,46.9,30.03,WNW,297,3.6,4.9,45,0.00,,---,0.00,VWS V14.01,2013-05-09 12:49:00,
2013-05-09 08:50:00,69.1,46.9,30.03,WNW,297,3.6,4.9,45,0.00,,---,0.00,VWS V14.01,2013-05-09 12:50:00,
2013-05-09 08:51:00,69.1,46.9,30.03,SW,219,0.0,2.7,45,0.00,,---,0.00,VWS V14.01,2013-05-09 12:51:00,
2013-05-09 08:54:00,69.4,47.8,30.03,WNW,288,0.0,0.0,46,0.00,,---,0.00,VWS V14.01,2013-05-09 12:54:00,
2013-05-09 08:55:00,69.4,47.8,30.03,WNW,288,0.0,0.0,46,0.00,,---,0.00,VWS V14.01,2013-05-09 12:55:00,
2013-05-09 08:56:00,69.6,48.0,30.03,WNW,294,0.0,0.0,46,0.00,,---,0.00,VWS V14.01,2013-05-09 12:56:00,
2013-05-09 08:59:00,70.0,47.1,30.03,West,259,2.7,4.5,44,0.00,,---,0.00,VWS V14.01,2013-05-09 12:59:00,
2013-05-09 09:00:00,70.0,47.1,30.03,WSW,245,3.1,4.5,44,0.00,,---,0.00,VWS V14.01,2013-05-09 13:00:00,
2013-05-09 09:01:00,70.0,47.1,30.03,NNW,341,3.1,3.1,44,0.00,,---,0.00,VWS V14.01,2013-05-09 13:01:00,
2013-05-09 09:04:00,70.3,47.4,30.03,NNW,335,0.0,0.0,44,0.00,,---,0.00,VWS V14.01,2013-05-09 13:04:00,
2013-05-09 09:05:00,70.3,47.4,30.03,NNW,330,0.0,0.0,44,0.00,,---,0.00,VWS V14.01,2013-05-09 13:05:00,
2013-05-09 09:06:00,70.3,46.8,30.03,SSE,154,0.0,0.0,43,0.00,,---,0.00,VWS V14.01,2013-05-09 13:06:00,
2013-05-09 09:10:00,70.2,46.0,30.03,SSW,192,0.0,0.0,42,0.00,,---,0.00,VWS V14.01,2013-05-09 13:10:00,
2013-05-09 09:11:00,70.2,46.0,30.03,West,259,0.0,0.0,42,0.00,,---,0.00,VWS V14.01,2013-05-09 13:11:00,
2013-05-09 09:15:00,70.3,46.8,30.03,West,269,3.1,3.1,43,0.00,,---,0.00,VWS V14.01,2013-05-09 13:15:00,
2013-05-09 09:16:00,70.3,46.8,30.03,NNW,332,3.6,3.6,43,0.00,,---,0.00,VWS V14.01,2013-05-09 13:16:00,
2013-05-09 09:20:00,70.7,46.5,30.03,WNW,288,0.0,3.1,42,0.00,,---,0.00,VWS V14.01,2013-05-09 13:20:00,
2013-05-09 09:21:00,70.7,47.1,30.03,SSW,193,0.0,0.0,43,0.00,,---,0.00,VWS V14.01,2013-05-09 13:21:00,
2013-05-09 09:25:00,70.9,47.3,30.03,West,276,2.7,3.1,43,0.00,,---,0.00,VWS V14.01,2013-05-09 13:25:00,
2013-05-09 09:26:00,71.2,47.6,30.03,WSW,243,3.6,3.6,43,0.00,,---,0.00,VWS V14.01,2013-05-09 13:26:00,
2013-05-09 09:30:00,71.4,47.2,30.03,WSW,247,2.7,4.9,42,0.00,,---,0.00,VWS V14.01,2013-05-09 13:30:00,
2013-05-09 09:31:00,71.4,45.9,30.03,West,280,2.2,2.2,40,0.00,,---,0.00,VWS V14.01,2013-05-09 13:31:00,
2013-05-09 09:35:00,71.8,46.2,30.03,WNW,293,4.0,4.0,40,0.00,,---,0.00,VWS V14.01,2013-05-09 13:35:00,
2013-05-09 09:36:00,71.8,45.5,30.03,WSW,242,2.2,2.2,39,0.00,,---,0.00,VWS V14.01,2013-05-09 13:36:00,
2013-05-09 09:40:00,72.1,46.5,30.03,WSW,240,2.7,2.7,40,0.00,,---,0.00,VWS V14.01,2013-05-09 13:40:00,
2013-05-09 09:41:00,72.3,46.0,30.03,SSW,206,0.0,0.0,39,0.00,,---,0.00,VWS V14.01,2013-05-09 13:41:00,
2013-05-09 09:45:00,72.3,46.0,30.03,WNW,294,0.0,0.0,39,0.00,,---,0.00,VWS V14.01,2013-05-09 13:45:00,
2013-05-09 09:46:00,72.7,46.3,30.03,WNW,301,3.1,4.0,39,0.00,,---,0.00,VWS V14.01,2013-05-09 13:46:00,
2013-05-09 09:50:00,73.2,46.1,30.03,South,185,0.0,0.0,38,0.00,,---,0.00,VWS V14.01,2013-05-09 13:50:00,
2013-05-09 09:51:00,73.2,46.1,30.03,South,185,0.0,0.0,38,0.00,,---,0.00,VWS V14.01,2013-05-09 13:51:00,
2013-05-09 09:55:00,73.2,45.4,30.03,NW,314,3.1,3.1,37,0.00,,---,0.00,VWS V14.01,2013-05-09 13:55:00,
2013-05-09 09:56:00,73.2,45.4,30.03,WNW,283,0.0,0.0,37,0.00,,---,0.00,VWS V14.01,2013-05-09 13:56:00,
2013-05-09 10:00:00,73.4,45.6,30.03,West,273,2.7,4.9,37,0.00,,---,0.00,VWS V14.01,2013-05-09 14:00:00,
2013-05-09 10:01:00,73.6,45.0,30.03,WSW,244,2.7,4.9,36,0.00,,---,0.00,VWS V14.01,2013-05-09 14:01:00,
2013-05-09 10:05:00,73.6,45.0,30.03,WNW,282,3.6,4.9,36,0.00,,---,0.00,VWS V14.01,2013-05-09 14:05:00,
2013-05-09 10:06:00,73.8,45.2,30.03,WSW,239,4.0,4.0,36,0.00,,---,0.00,VWS V14.01,2013-05-09 14:06:00,
2013-05-09 10:10:00,73.9,45.3,30.03,NW,308,5.4,5.4,36,0.00,,---,0.00,VWS V14.01,2013-05-09 14:10:00,
2013-05-09 10:11:00,73.8,44.4,30.03,West,274,2.7,2.7,35,0.00,,---,0.00,VWS V14.01,2013-05-09 14:11:00,
2013-05-09 10:15:00,73.8,44.4,30.03,WSW,258,4.9,4.9,35,0.00,,---,0.00,VWS V14.01,2013-05-09 14:15:00,
2013-05-09 10:16:00,73.9,44.6,30.03,WSW,246,6.3,6.3,35,0.00,,---,0.00,VWS V14.01,2013-05-09 14:16:00,
2013-05-09 10:17:00,73.9,44.6,30.03,WNW,292,5.4,6.3,35,0.00,,---,0.00,VWS V14.01,2013-05-09 14:17:00,
2013-05-09 10:20:00,74.3,44.9,30.03,WNW,288,6.3,6.3,35,0.00,,---,0.00,VWS V14.01,2013-05-09 14:20:00,
2013-05-09 10:21:00,74.3,44.9,30.03,WNW,291,6.3,6.3,35,0.00,,---,0.00,VWS V14.01,2013-05-09 14:21:00,
2013-05-09 10:22:00,74.5,45.1,30.03,WSW,258,2.7,5.4,35,0.00,,---,0.00,VWS V14.01,2013-05-09 14:22:00,
2013-05-09 10:25:00,74.7,44.5,30.03,WNW,303,3.1,3.6,34,0.00,,---,0.00,VWS V14.01,2013-05-09 14:25:00,
2013-05-09 10:26:00,74.7,44.5,30.03,WNW,303,0.0,3.6,34,0.00,,---,0.00,VWS V14.01,2013-05-09 14:26:00,
2013-05-09 10:27:00,74.7,44.5,30.03,SSW,212,3.1,4.0,34,0.00,,---,0.00,VWS V14.01,2013-05-09 14:27:00,
2013-05-09 10:30:00,75.0,44.8,30.03,South,171,2.7,5.8,34,0.00,,---,0.00,VWS V14.01,2013-05-09 14:30:00,
2013-05-09 10:31:00,75.0,44.8,30.03,WNW,285,3.1,5.8,34,0.00,,---,0.00,VWS V14.01,2013-05-09 14:31:00,
2013-05-09 10:32:00,75.2,44.9,30.03,SW,224,6.3,6.3,34,0.00,,---,0.00,VWS V14.01,2013-05-09 14:32:00,
2013-05-09 10:35:00,75.2,44.9,30.03,WSW,244,3.6,3.6,34,0.00,,---,0.00,VWS V14.01,2013-05-09 14:35:00,
2013-05-09 10:36:00,75.2,44.9,30.03,NW,305,3.1,3.6,34,0.00,,---,0.00,VWS V14.01,2013-05-09 14:36:00,
2013-05-09 10:37:00,75.4,45.1,30.03,NNW,329,3.6,3.6,34,0.00,,---,0.00,VWS V14.01,2013-05-09 14:37:00,
2013-05-09 10:41:00,75.7,45.4,30.03,SW,229,0.0,0.0,34,0.00,,---,0.00,VWS V14.01,2013-05-09 14:41:00,
2013-05-09 10:42:00,75.9,45.6,30.03,North,353,0.0,0.0,34,0.00,,---,0.00,VWS V14.01,2013-05-09 14:42:00,
2013-05-09 10:46:00,76.5,45.2,30.03,WNW,288,3.1,6.3,33,0.00,,---,0.00,VWS V14.01,2013-05-09 14:46:00,
2013-05-09 10:47:00,76.6,45.4,30.03,WSW,243,8.3,8.3,33,0.00,,---,0.00,VWS V14.01,2013-05-09 14:47:00,
2013-05-09 10:51:00,76.3,45.1,30.03,WNW,294,7.6,7.6,33,0.00,,---,0.00,VWS V14.01,2013-05-09 14:51:00,
2013-05-09 10:52:00,76.3,45.1,30.03,NNW,340,2.7,7.6,33,0.00,,---,0.00,VWS V14.01,2013-05-09 14:52:00,
2013-05-09 10:56:00,76.1,44.9,30.03,NNW,338,3.6,6.3,33,0.00,,---,0.00,VWS V14.01,2013-05-09 14:56:00,
2013-05-09 10:57:00,76.1,44.9,30.03,NNW,327,0.0,0.0,33,0.00,,---,0.00,VWS V14.01,2013-05-09 14:57:00,
2013-05-09 11:01:00,76.5,45.2,30.03,WNW,294,4.0,5.4,33,0.00,,---,0.00,VWS V14.01,2013-05-09 15:01:00,
2013-05-09 11:02:00,76.5,45.2,30.03,NW,323,2.7,5.4,33,0.00,,---,0.00,VWS V14.01,2013-05-09 15:02:00,
2013-05-09 11:06:00,77.0,45.7,30.03,WNW,286,3.6,4.9,33,0.00,,---,0.00,VWS V14.01,2013-05-09 15:06:00,
2013-05-09 11:07:00,77.0,45.7,30.03,WNW,302,2.7,5.8,33,0.00,,---,0.00,VWS V14.01,2013-05-09 15:07:00,
2013-05-09 11:11:00,77.2,45.9,30.03,WSW,248,4.0,5.4,33,0.00,,---,0.00,VWS V14.01,2013-05-09 15:11:00,
2013-05-09 11:12:00,77.2,45.9,30.03,West,271,6.3,6.3,33,0.00,,---,0.00,VWS V14.01,2013-05-09 15:12:00,
2013-05-09 11:16:00,77.0,44.9,30.03,SSW,205,3.1,3.6,32,0.00,,---,0.00,VWS V14.01,2013-05-09 15:16:00,
2013-05-09 11:17:00,77.0,45.7,30.03,NW,312,2.7,3.6,33,0.00,,---,0.00,VWS V14.01,2013-05-09 15:17:00,
2013-05-09 11:21:00,77.2,45.1,30.03,WSW,239,0.0,0.0,32,0.00,,---,0.00,VWS V14.01,2013-05-09 15:21:00,
2013-05-09 11:22:00,77.4,45.2,30.03,NNW,328,2.7,4.9,32,0.00,,---,0.00,VWS V14.01,2013-05-09 15:22:00,
2013-05-09 11:26:00,77.0,44.9,30.03,WSW,252,4.5,4.5,32,0.00,,---,0.00,VWS V14.01,2013-05-09 15:26:00,
2013-05-09 11:27:00,77.0,45.7,30.03,SSW,210,4.0,4.5,33,0.00,,---,0.00,VWS V14.01,2013-05-09 15:27:00,
2013-05-09 11:31:00,76.8,45.6,30.03,West,280,0.0,2.2,33,0.00,,---,0.00,VWS V14.01,2013-05-09 15:31:00,
2013-05-09 11:32:00,76.8,45.6,30.03,NW,322,4.0,4.0,33,0.00,,---,0.00,VWS V14.01,2013-05-09 15:32:00,
2013-05-09 11:36:00,77.0,45.7,30.06,WSW,251,2.2,4.9,33,0.00,,---,0.00,VWS V14.01,2013-05-09 15:36:00,
2013-05-09 11:37:00,77.0,45.7,30.06,WSW,251,2.2,4.9,33,0.00,,---,0.00,VWS V14.01,2013-05-09 15:37:00,
2013-05-09 11:41:00,77.5,45.4,30.06,SSW,196,3.1,3.6,32,0.00,,---,0.00,VWS V14.01,2013-05-09 15:41:00,
2013-05-09 11:42:00,77.5,45.4,30.06,SSW,197,2.7,3.6,32,0.00,,---,0.00,VWS V14.01,2013-05-09 15:42:00,
2013-05-09 11:43:00,77.5,45.4,30.06,SSE,167,2.2,3.6,32,0.00,,---,0.00,VWS V14.01,2013-05-09 15:43:00,
2013-05-09 11:46:00,77.5,45.4,30.06,West,266,3.1,3.1,32,0.00,,---,0.00,VWS V14.01,2013-05-09 15:46:00,
2013-05-09 11:47:00,77.5,45.4,30.06,SW,227,0.0,3.1,32,0.00,,---,0.00,VWS V14.01,2013-05-09 15:47:00,
2013-05-09 11:48:00,77.7,45.5,30.06,SE,133,3.1,3.1,32,0.00,,---,0.00,VWS V14.01,2013-05-09 15:48:00,
2013-05-09 11:51:00,77.9,45.7,30.03,NW,304,2.7,3.1,32,0.00,,---,0.00,VWS V14.01,2013-05-09 15:51:00,
2013-05-09 11:52:00,77.9,45.7,30.03,West,264,3.6,3.6,32,0.00,,---,0.00,VWS V14.01,2013-05-09 15:52:00,
2013-05-09 11:53:00,77.9,45.7,30.03,South,179,3.6,3.6,32,0.00,,---,0.00,VWS V14.01,2013-05-09 15:53:00,
2013-05-09 11:56:00,78.1,46.7,30.03,SSE,149,5.8,5.8,33,0.00,,---,0.00,VWS V14.01,2013-05-09 15:56:00,
2013-05-09 11:57:00,78.3,46.8,30.03,SSE,149,5.8,5.8,33,0.00,,---,0.00,VWS V14.01,2013-05-09 15:57:00,
2013-05-09 11:58:00,78.3,46.8,30.03,WSW,255,3.1,4.0,33,0.00,,---,0.00,VWS V14.01,2013-05-09 15:58:00,
2013-05-09 12:02:00,78.1,46.7,30.03,South,181,5.4,6.3,33,0.00,,---,0.00,VWS V14.01,2013-05-09 16:02:00,
2013-05-09 12:03:00,77.7,46.3,30.06,South,169,2.7,2.7,33,0.00,,---,0.00,VWS V14.01,2013-05-09 16:03:00,
2013-05-09 12:07:00,77.0,45.7,30.06,SSE,162,8.7,8.7,33,0.00,,---,0.00,VWS V14.01,2013-05-09 16:07:00,
2013-05-09 12:08:00,76.8,46.3,30.06,South,182,3.1,3.1,34,0.00,,---,0.00,VWS V14.01,2013-05-09 16:08:00,
2013-05-09 12:12:00,76.6,47.0,30.06,SW,217,7.6,7.6,35,0.00,,---,0.00,VWS V14.01,2013-05-09 16:12:00,
2013-05-09 12:13:00,76.6,46.2,30.06,SW,226,0.0,2.7,34,0.00,,---,0.00,VWS V14.01,2013-05-09 16:13:00,
2013-05-09 12:17:00,76.1,45.7,30.06,SSW,192,7.6,7.6,34,0.00,,---,0.00,VWS V14.01,2013-05-09 16:17:00,
2013-05-09 12:18:00,76.1,45.7,30.03,SSW,198,4.0,6.3,34,0.00,,---,0.00,VWS V14.01,2013-05-09 16:18:00,
2013-05-09 12:22:00,75.9,46.3,30.03,SSE,147,4.9,4.9,35,0.00,,---,0.00,VWS V14.01,2013-05-09 16:22:00,
2013-05-09 12:23:00,75.9,46.3,30.03,WSW,251,4.9,6.3,35,0.00,,---,0.00,VWS V14.01,2013-05-09 16:23:00,
2013-05-09 12:27:00,76.1,46.5,30.03,South,171,3.6,3.6,35,0.00,,---,0.00,VWS V14.01,2013-05-09 16:27:00,
2013-05-09 12:28:00,76.3,46.7,30.03,SE,142,5.8,5.8,35,0.00,,---,0.00,VWS V14.01,2013-05-09 16:28:00,
2013-05-09 12:32:00,76.6,47.0,30.03,SSW,194,4.9,8.3,35,0.00,,---,0.00,VWS V14.01,2013-05-09 16:32:00,
2013-05-09 12:33:00,76.6,46.2,30.03,South,179,4.9,8.3,34,0.00,,---,0.00,VWS V14.01,2013-05-09 16:33:00,
2013-05-09 12:37:00,76.6,46.2,30.06,SSE,159,6.3,8.1,34,0.00,,---,0.00,VWS V14.01,2013-05-09 16:37:00,
2013-05-09 12:38:00,76.6,46.2,30.06,SSW,195,6.3,8.1,34,0.00,,---,0.00,VWS V14.01,2013-05-09 16:38:00,
2013-05-09 12:42:00,76.8,46.3,30.06,SSE,162,5.8,6.7,34,0.00,,---,0.00,VWS V14.01,2013-05-09 16:42:00,
2013-05-09 12:43:00,76.8,46.3,30.06,SSE,155,6.3,6.7,34,0.00,,---,0.00,VWS V14.01,2013-05-09 16:43:00,
2013-05-09 12:47:00,77.5,46.2,30.06,South,187,8.1,8.1,33,0.00,,---,0.00,VWS V14.01,2013-05-09 16:47:00,
2013-05-09 12:48:00,77.5,46.2,30.06,SSE,155,6.3,8.1,33,0.00,,---,0.00,VWS V14.01,2013-05-09 16:48:00,
2013-05-09 12:52:00,77.4,46.0,30.06,South,183,0.0,0.0,33,0.00,,---,0.00,VWS V14.01,2013-05-09 16:52:00,
2013-05-09 12:53:00,77.4,46.0,30.06,South,183,0.0,0.0,33,0.00,,---,0.00,VWS V14.01,2013-05-09 16:53:00,
2013-05-09 12:58:00,76.8,45.6,30.06,SSE,158,3.6,4.0,33,0.00,,---,0.00,VWS V14.01,2013-05-09 16:58:00,
2013-05-09 13:03:00,76.5,46.0,30.06,SSE,153,5.4,5.8,34,0.00,,---,0.00,VWS V14.01,2013-05-09 17:03:00,
2013-05-09 13:04:00,76.5,46.0,30.06,SSE,160,5.8,5.8,34,0.00,,---,0.00,VWS V14.01,2013-05-09 17:04:00,
2013-05-09 13:08:00,76.5,46.0,30.06,South,186,3.6,3.6,34,0.00,,---,0.00,VWS V14.01,2013-05-09 17:08:00,
2013-05-09 13:09:00,76.5,45.2,30.06,SSE,164,3.6,4.9,33,0.00,,---,0.00,VWS V14.01,2013-05-09 17:09:00,
2013-05-09 13:13:00,76.5,46.0,30.06,East,100,4.0,5.8,34,0.00,,---,0.00,VWS V14.01,2013-05-09 17:13:00,
2013-05-09 13:14:00,76.5,46.0,30.06,South,172,4.0,5.8,34,0.00,,---,0.00,VWS V14.01,2013-05-09 17:14:00,
2013-05-09 13:18:00,77.5,47.0,30.06,SSE,152,4.9,5.4,34,0.00,,---,0.00,VWS V14.01,2013-05-09 17:18:00,
2013-05-09 13:19:00,77.7,47.1,30.06,South,186,3.6,5.4,34,0.00,,---,0.00,VWS V14.01,2013-05-09 17:19:00,
2013-05-09 13:23:00,77.5,45.4,30.06,SE,143,2.2,2.2,32,0.00,,---,0.00,VWS V14.01,2013-05-09 17:23:00,
2013-05-09 13:24:00,77.4,46.0,30.06,SSE,151,4.0,4.0,33,0.00,,---,0.00,VWS V14.01,2013-05-09 17:24:00,
2013-05-09 13:28:00,77.2,45.9,30.06,South,179,5.8,6.3,33,0.00,,---,0.00,VWS V14.01,2013-05-09 17:28:00,
2013-05-09 13:29:00,77.2,45.9,30.06,South,181,4.9,6.3,33,0.00,,---,0.00,VWS V14.01,2013-05-09 17:29:00,
2013-05-09 13:33:00,77.0,45.7,30.06,SE,136,2.7,2.7,33,0.00,,---,0.00,VWS V14.01,2013-05-09 17:33:00,
2013-05-09 13:34:00,77.0,45.7,30.06,SSW,194,3.6,3.6,33,0.00,,---,0.00,VWS V14.01,2013-05-09 17:34:00,
2013-05-09 13:38:00,76.8,46.3,30.06,South,171,2.7,5.8,34,0.00,,---,0.00,VWS V14.01,2013-05-09 17:38:00,
2013-05-09 13:39:00,76.8,46.3,30.06,SSE,157,6.3,6.3,34,0.00,,---,0.00,VWS V14.01,2013-05-09 17:39:00,
2013-05-09 13:43:00,77.4,46.8,30.06,SE,131,7.2,7.2,34,0.00,,---,0.00,VWS V14.01,2013-05-09 17:43:00,
2013-05-09 13:44:00,77.4,46.8,30.06,SSW,197,7.6,7.6,34,0.00,,---,0.00,VWS V14.01,2013-05-09 17:44:00,
2013-05-09 13:48:00,77.7,46.3,30.06,WSW,249,2.7,3.1,33,0.00,,---,0.00,VWS V14.01,2013-05-09 17:48:00,
2013-05-09 13:49:00,77.7,46.3,30.06,SE,126,5.8,5.8,33,0.00,,---,0.00,VWS V14.01,2013-05-09 17:49:00,
2013-05-09 13:53:00,77.4,46.0,30.06,South,176,8.1,8.1,33,0.00,,---,0.00,VWS V14.01,2013-05-09 17:53:00,
2013-05-09 13:54:00,77.4,46.0,30.06,SE,136,7.2,7.2,33,0.00,,---,0.00,VWS V14.01,2013-05-09 17:54:00,
2013-05-09 13:58:00,77.0,45.7,30.06,SW,229,2.7,2.7,33,0.00,,---,0.00,VWS V14.01,2013-05-09 17:58:00,
2013-05-09 13:59:00,77.0,45.7,30.06,SW,229,2.7,2.7,33,0.00,,---,0.00,VWS V14.01,2013-05-09 17:59:00,
2013-05-09 14:04:00,76.5,46.0,30.06,SSE,153,0.0,0.0,34,0.00,,---,0.00,VWS V14.01,2013-05-09 18:04:00,
2013-05-09 14:09:00,76.3,46.7,30.06,ESE,112,6.3,6.3,35,0.00,,---,0.00,VWS V14.01,2013-05-09 18:09:00,
2013-05-09 14:14:00,75.9,45.6,30.06,South,191,3.1,4.0,34,0.00,,---,0.00,VWS V14.01,2013-05-09 18:14:00,
2013-05-09 14:19:00,76.3,45.9,30.06,NW,307,0.0,2.2,34,0.00,,---,0.00,VWS V14.01,2013-05-09 18:19:00,
2013-05-09 14:24:00,76.8,46.3,30.06,SE,143,3.6,4.9,34,0.00,,---,0.00,VWS V14.01,2013-05-09 18:24:00,
2013-05-09 14:29:00,76.8,45.6,30.06,SE,132,0.0,3.6,33,0.00,,---,0.00,VWS V14.01,2013-05-09 18:29:00,
2013-05-09 14:34:00,77.4,46.0,30.06,West,268,4.0,4.0,33,0.00,,---,0.00,VWS V14.01,2013-05-09 18:34:00,
2013-05-09 14:35:00,77.5,46.2,30.06,SSE,158,3.6,5.4,33,0.00,,---,0.00,VWS V14.01,2013-05-09 18:35:00,
2013-05-09 14:39:00,77.9,45.7,30.06,NE,45,3.1,4.0,32,0.00,,---,0.00,VWS V14.01,2013-05-09 18:39:00,
2013-05-09 14:40:00,77.9,45.7,30.06,SSW,210,3.6,3.6,32,0.00,,---,0.00,VWS V14.01,2013-05-09 18:40:00,
2013-05-09 14:44:00,77.7,46.3,30.06,South,176,2.2,2.2,33,0.00,,---,0.00,VWS V14.01,2013-05-09 18:44:00,
2013-05-09 14:45:00,77.7,45.5,30.06,SSW,205,2.7,5.8,32,0.00,,---,0.00,VWS V14.01,2013-05-09 18:45:00,
2013-05-09 14:49:00,77.7,45.5,30.06,West,259,2.7,2.7,32,0.00,,---,0.00,VWS V14.01,2013-05-09 18:49:00,
2013-05-09 14:50:00,77.5,45.4,30.06,SSW,197,4.0,5.4,32,0.00,,---,0.00,VWS V14.01,2013-05-09 18:50:00,
2013-05-09 14:54:00,77.2,45.1,30.06,SSW,205,3.6,6.3,32,0.00,,---,0.00,VWS V14.01,2013-05-09 18:54:00,
2013-05-09 14:55:00,77.2,45.1,30.06,South,181,3.1,6.3,32,0.00,,---,0.00,VWS V14.01,2013-05-09 18:55:00,
2013-05-09 14:59:00,77.4,46.0,30.06,South,171,5.4,5.4,33,0.00,,---,0.00,VWS V14.01,2013-05-09 18:59:00,
2013-05-09 15:00:00,77.4,46.0,30.06,SSE,150,3.6,5.4,33,0.00,,---,0.00,VWS V14.01,2013-05-09 19:00:00,
2013-05-09 15:04:00,77.7,46.3,30.06,ESE,119,4.0,4.0,33,0.00,,---,0.00,VWS V14.01,2013-05-09 19:04:00,
2013-05-09 15:05:00,77.7,46.3,30.06,SSE,158,3.6,5.8,33,0.00,,---,0.00,VWS V14.01,2013-05-09 19:05:00,
2013-05-09 15:09:00,77.7,45.5,30.06,SSE,158,8.1,8.1,32,0.00,,---,0.00,VWS V14.01,2013-05-09 19:09:00,
2013-05-09 15:10:00,77.5,45.4,30.06,SSE,162,4.9,4.9,32,0.00,,---,0.00,VWS V14.01,2013-05-09 19:10:00,
2013-05-09 15:14:00,77.7,46.3,30.06,South,190,4.9,5.8,33,0.00,,---,0.00,VWS V14.01,2013-05-09 19:14:00,
2013-05-09 15:15:00,77.7,46.3,30.06,SE,134,4.0,4.0,33,0.00,,---,0.00,VWS V14.01,2013-05-09 19:15:00,
2013-05-09 15:19:00,78.1,45.8,30.03,SE,144,3.6,7.6,32,0.00,,---,0.00,VWS V14.01,2013-05-09 19:19:00,
2013-05-09 15:20:00,78.1,45.8,30.03,SE,140,5.8,5.8,32,0.00,,---,0.00,VWS V14.01,2013-05-09 19:20:00,
2013-05-09 15:21:00,78.1,45.8,30.03,SSE,156,5.8,6.3,32,0.00,,---,0.00,VWS V14.01,2013-05-09 19:21:00,
2013-05-09 15:24:00,77.9,45.7,30.03,SE,133,5.4,5.4,32,0.00,,---,0.00,VWS V14.01,2013-05-09 19:24:00,
2013-05-09 15:25:00,77.9,46.5,30.03,SSE,153,5.4,5.4,33,0.00,,---,0.00,VWS V14.01,2013-05-09 19:25:00,
2013-05-09 15:26:00,77.9,46.5,30.03,SSE,159,4.0,5.4,33,0.00,,---,0.00,VWS V14.01,2013-05-09 19:26:00,
2013-05-09 15:29:00,78.1,46.7,30.03,SSE,155,4.0,5.8,33,0.00,,---,0.00,VWS V14.01,2013-05-09 19:29:00,
2013-05-09 15:30:00,78.1,46.7,30.03,South,187,4.0,4.0,33,0.00,,---,0.00,VWS V14.01,2013-05-09 19:30:00,
2013-05-09 15:31:00,78.3,46.8,30.03,South,178,7.6,9.2,33,0.00,,---,0.00,VWS V14.01,2013-05-09 19:31:00,
2013-05-09 15:34:00,78.4,46.2,30.03,ESE,106,0.0,0.0,32,0.00,,---,0.00,VWS V14.01,2013-05-09 19:34:00,
2013-05-09 15:35:00,78.4,46.2,30.03,WSW,254,0.0,0.0,32,0.00,,---,0.00,VWS V14.01,2013-05-09 19:35:00,
2013-05-09 15:36:00,78.3,46.0,30.03,SSE,165,0.0,0.0,32,0.00,,---,0.00,VWS V14.01,2013-05-09 19:36:00,
2013-05-09 15:40:00,77.5,45.4,30.03,South,176,3.1,5.4,32,0.00,,---,0.00,VWS V14.01,2013-05-09 19:40:00,
2013-05-09 15:41:00,77.4,45.2,30.03,South,190,3.6,5.4,32,0.00,,---,0.00,VWS V14.01,2013-05-09 19:41:00,
2013-05-09 15:45:00,77.0,44.9,30.03,SSW,199,2.2,3.1,32,0.00,,---,0.00,VWS V14.01,2013-05-09 19:45:00,
2013-05-09 15:46:00,76.6,45.4,30.03,SSW,205,2.7,4.0,33,0.00,,---,0.00,VWS V14.01,2013-05-09 19:46:00,
2013-05-09 15:50:00,75.9,44.8,30.06,SSW,199,3.6,5.4,33,0.00,,---,0.00,VWS V14.01,2013-05-09 19:50:00,
2013-05-09 15:51:00,75.7,44.6,30.06,SSW,202,2.2,2.7,33,0.00,,---,0.00,VWS V14.01,2013-05-09 19:51:00,
2013-05-09 15:55:00,75.7,45.4,30.06,South,186,3.1,11.0,34,0.00,,---,0.00,VWS V14.01,2013-05-09 19:55:00,
2013-05-09 15:56:00,75.9,45.6,30.06,SSW,202,4.0,4.9,34,0.00,,---,0.00,VWS V14.01,2013-05-09 19:56:00,
2013-05-09 16:00:00,75.7,45.4,30.06,SSW,202,3.1,4.9,34,0.00,,---,0.00,VWS V14.01,2013-05-09 20:00:00,
2013-05-09 16:01:00,75.7,45.4,30.06,SSE,163,6.3,6.3,34,0.00,,---,0.00,VWS V14.01,2013-05-09 20:01:00,
2013-05-09 16:05:00,75.9,45.6,30.06,SSE,152,3.6,4.9,34,0.00,,---,0.00,VWS V14.01,2013-05-09 20:05:00,
2013-05-09 16:06:00,75.9,45.6,30.06,SW,230,5.8,5.8,34,0.00,,---,0.00,VWS V14.01,2013-05-09 20:06:00,
2013-05-09 16:10:00,75.7,45.4,30.06,WSW,247,0.0,0.0,34,0.00,,---,0.00,VWS V14.01,2013-05-09 20:10:00,
2013-05-09 16:11:00,75.7,45.4,30.06,South,185,2.2,2.2,34,0.00,,---,0.00,VWS V14.01,2013-05-09 20:11:00,
2013-05-09 16:15:00,75.2,44.9,30.06,ESE,105,3.1,3.1,34,0.00,,---,0.00,VWS V14.01,2013-05-09 20:15:00,
2013-05-09 16:16:00,75.0,45.5,30.06,WSW,241,5.4,5.4,35,0.00,,---,0.00,VWS V14.01,2013-05-09 20:16:00,
2013-05-09 16:20:00,74.5,45.1,30.06,South,171,5.8,7.2,35,0.00,,---,0.00,VWS V14.01,2013-05-09 20:20:00,
2013-05-09 16:21:00,74.3,44.9,30.06,SSE,152,5.8,5.8,35,0.00,,---,0.00,VWS V14.01,2013-05-09 20:21:00,
2013-05-09 16:25:00,73.9,45.3,30.06,SW,220,3.6,3.6,36,0.00,,---,0.00,VWS V14.01,2013-05-09 20:25:00,
2013-05-09 16:26:00,73.9,45.3,30.06,West,280,2.7,4.0,36,0.00,,---,0.00,VWS V14.01,2013-05-09 20:26:00,
2013-05-09 16:30:00,73.2,45.4,30.06,SSW,194,3.6,3.6,37,0.00,,---,0.00,VWS V14.01,2013-05-09 20:30:00,
2013-05-09 16:31:00,73.2,45.4,30.06,SSW,211,4.0,4.0,37,0.00,,---,0.00,VWS V14.01,2013-05-09 20:31:00,
2013-05-09 16:35:00,73.0,46.0,30.06,SSE,156,5.4,8.7,38,0.00,,---,0.00,VWS V14.01,2013-05-09 20:35:00,
2013-05-09 16:36:00,73.0,46.0,30.06,SE,140,4.9,8.7,38,0.00,,---,0.00,VWS V14.01,2013-05-09 20:36:00,
2013-05-09 16:40:00,73.0,46.0,30.06,SE,144,3.1,4.9,38,0.00,,---,0.00,VWS V14.01,2013-05-09 20:40:00,
2013-05-09 16:41:00,73.2,46.1,30.06,SW,214,4.9,4.9,38,0.00,,---,0.00,VWS V14.01,2013-05-09 20:41:00,
2013-05-09 16:46:00,73.4,45.6,30.06,SSE,166,6.3,10.1,37,0.00,,---,0.00,VWS V14.01,2013-05-09 20:46:00,
2013-05-09 16:51:00,73.8,45.9,30.06,South,169,2.2,4.0,37,0.00,,---,0.00,VWS V14.01,2013-05-09 20:51:00,
2013-05-09 16:52:00,73.8,45.9,30.06,SSE,151,4.5,4.5,37,0.00,,---,0.00,VWS V14.01,2013-05-09 20:52:00,
2013-05-09 16:56:00,74.1,45.5,30.06,South,169,3.1,7.6,36,0.00,,---,0.00,VWS V14.01,2013-05-09 20:56:00,
2013-05-09 16:57:00,74.1,45.5,30.06,NNW,332,2.7,3.6,36,0.00,,---,0.00,VWS V14.01,2013-05-09 20:57:00,
2013-05-09 17:01:00,74.1,45.5,30.06,ESE,116,4.9,4.9,36,0.00,,---,0.00,VWS V14.01,2013-05-09 21:01:00,
2013-05-09 17:02:00,74.1,45.5,30.06,North,5,3.1,4.9,36,0.00,,---,0.00,VWS V14.01,2013-05-09 21:02:00,
2013-05-09 17:06:00,73.8,45.2,30.06,WSW,250,5.4,5.8,36,0.00,,---,0.00,VWS V14.01,2013-05-09 21:06:00,
2013-05-09 17:07:00,73.8,45.2,30.06,SSW,200,3.6,3.6,36,0.00,,---,0.00,VWS V14.01,2013-05-09 21:07:00,
2013-05-09 17:11:00,73.8,45.2,30.06,SSE,157,2.7,3.6,36,0.00,,---,0.00,VWS V14.01,2013-05-09 21:11:00,
2013-05-09 17:12:00,73.8,45.2,30.06,SE,146,0.0,2.2,36,0.00,,---,0.00,VWS V14.01,2013-05-09 21:12:00,
2013-05-09 17:16:00,73.9,46.0,30.06,South,175,4.0,4.0,37,0.00,,---,0.00,VWS V14.01,2013-05-09 21:16:00,
2013-05-09 17:17:00,73.9,45.3,30.06,SSW,200,5.4,5.4,36,0.00,,---,0.00,VWS V14.01,2013-05-09 21:17:00,
2013-05-09 17:21:00,73.9,45.3,30.06,SSE,160,5.8,5.8,36,0.00,,---,0.00,VWS V14.01,2013-05-09 21:21:00,
2013-05-09 17:22:00,73.9,45.3,30.06,South,186,7.6,8.3,36,0.00,,---,0.00,VWS V14.01,2013-05-09 21:22:00,
2013-05-09 17:26:00,73.8,45.2,30.06,SSE,149,3.6,5.4,36,0.00,,---,0.00,VWS V14.01,2013-05-09 21:26:00,
2013-05-09 17:27:00,73.8,45.2,30.06,South,184,4.9,6.3,36,0.00,,---,0.00,VWS V14.01,2013-05-09 21:27:00,
2013-05-09 17:31:00,73.4,44.8,30.06,SW,226,5.8,6.7,36,0.00,,---,0.00,VWS V14.01,2013-05-09 21:31:00,
2013-05-09 17:32:00,73.4,44.8,30.06,ESE,110,5.4,5.4,36,0.00,,---,0.00,VWS V14.01,2013-05-09 21:32:00,
2013-05-09 17:36:00,73.2,45.4,30.06,South,172,2.7,3.1,37,0.00,,---,0.00,VWS V14.01,2013-05-09 21:36:00,
2013-05-09 17:37:00,73.2,45.4,30.06,SE,125,4.5,5.8,37,0.00,,---,0.00,VWS V14.01,2013-05-09 21:37:00,
2013-05-09 17:38:00,73.0,45.2,30.06,SSW,199,2.7,5.8,37,0.00,,---,0.00,VWS V14.01,2013-05-09 21:38:00,
2013-05-09 17:41:00,72.9,45.1,30.06,SSW,197,4.0,4.0,37,0.00,,---,0.00,VWS V14.01,2013-05-09 21:41:00,
2013-05-09 17:42:00,72.7,44.9,30.06,SW,232,3.1,3.1,37,0.00,,---,0.00,VWS V14.01,2013-05-09 21:42:00,
2013-05-09 17:43:00,72.7,44.9,30.06,SSE,166,3.6,4.0,37,0.00,,---,0.00,VWS V14.01,2013-05-09 21:43:00,
2013-05-09 17:46:00,72.3,44.6,30.06,South,186,2.7,3.1,37,0.00,,---,0.00,VWS V14.01,2013-05-09 21:46:00,
2013-05-09 17:47:00,72.1,44.5,30.06,South,181,3.6,3.6,37,0.00,,---,0.00,VWS V14.01,2013-05-09 21:47:00,
2013-05-09 17:48:00,72.0,44.3,30.06,SSE,153,4.0,6.3,37,0.00,,---,0.00,VWS V14.01,2013-05-09 21:48:00,
2013-05-09 17:51:00,71.8,44.8,30.06,SSW,208,0.0,2.7,38,0.00,,---,0.00,VWS V14.01,2013-05-09 21:51:00,
2013-05-09 17:52:00,71.6,44.7,30.06,South,187,3.6,3.6,38,0.00,,---,0.00,VWS V14.01,2013-05-09 21:52:00,
2013-05-09 17:53:00,71.6,45.4,30.06,South,170,5.4,6.3,39,0.00,,---,0.00,VWS V14.01,2013-05-09 21:53:00,
2013-05-09 17:56:00,71.4,45.9,30.06,SSE,154,3.1,3.1,40,0.00,,---,0.00,VWS V14.01,2013-05-09 21:56:00,
2013-05-09 17:57:00,71.2,45.7,30.06,SW,223,3.1,3.1,40,0.00,,---,0.00,VWS V14.01,2013-05-09 21:57:00,
2013-05-09 17:58:00,71.2,46.4,30.06,ESE,104,5.4,5.4,41,0.00,,---,0.00,VWS V14.01,2013-05-09 21:58:00,
2013-05-09 18:01:00,71.2,47.0,30.06,SW,223,0.0,0.0,42,0.00,,---,0.00,VWS V14.01,2013-05-09 22:01:00,
2013-05-09 18:02:00,71.1,46.2,30.06,SSE,162,3.1,3.1,41,0.00,,---,0.00,VWS V14.01,2013-05-09 22:02:00,
2013-05-09 18:03:00,71.1,46.2,30.06,South,171,3.6,3.6,41,0.00,,---,0.00,VWS V14.01,2013-05-09 22:03:00,
2013-05-09 18:06:00,70.9,46.7,30.06,South,184,3.1,3.1,42,0.00,,---,0.00,VWS V14.01,2013-05-09 22:06:00,
2013-05-09 18:07:00,70.9,46.7,30.06,South,184,3.1,3.1,42,0.00,,---,0.00,VWS V14.01,2013-05-09 22:07:00,
2013-05-09 18:08:00,70.9,46.7,30.06,South,181,3.6,3.6,42,0.00,,---,0.00,VWS V14.01,2013-05-09 22:08:00,
2013-05-09 18:11:00,70.9,46.7,30.06,SSW,196,2.7,5.8,42,0.00,,---,0.00,VWS V14.01,2013-05-09 22:11:00,
2013-05-09 18:12:00,70.9,46.7,30.06,SSE,160,4.9,4.9,42,0.00,,---,0.00,VWS V14.01,2013-05-09 22:12:00,
2013-05-09 18:13:00,70.9,46.7,30.06,SSW,207,3.6,4.9,42,0.00,,---,0.00,VWS V14.01,2013-05-09 22:13:00,
2013-05-09 18:16:00,70.9,46.7,30.06,SSE,168,2.7,2.7,42,0.00,,---,0.00,VWS V14.01,2013-05-09 22:16:00,
2013-05-09 18:17:00,70.9,46.7,30.06,SSW,203,0.0,0.0,42,0.00,,---,0.00,VWS V14.01,2013-05-09 22:17:00,
2013-05-09 18:19:00,70.9,46.7,30.06,SSE,154,7.6,7.6,42,0.00,,---,0.00,VWS V14.01,2013-05-09 22:19:00,
2013-05-09 18:21:00,70.9,46.7,30.06,South,170,0.0,0.0,42,0.00,,---,0.00,VWS V14.01,2013-05-09 22:21:00,
2013-05-09 18:22:00,71.1,46.8,30.06,South,170,0.0,0.0,42,0.00,,---,0.00,VWS V14.01,2013-05-09 22:22:00,
2013-05-09 18:24:00,71.1,46.8,30.06,South,170,0.0,0.0,42,0.00,,---,0.00,VWS V14.01,2013-05-09 22:24:00,
2013-05-09 18:26:00,71.1,46.8,30.06,South,178,2.2,2.2,42,0.00,,---,0.00,VWS V14.01,2013-05-09 22:26:00,
2013-05-09 18:27:00,71.2,47.0,30.06,SW,216,2.7,2.7,42,0.00,,---,0.00,VWS V14.01,2013-05-09 22:27:00,
2013-05-09 18:29:00,71.2,46.4,30.06,South,172,4.0,4.0,41,0.00,,---,0.00,VWS V14.01,2013-05-09 22:29:00,
2013-05-09 18:31:00,71.2,46.4,30.06,ENE,61,2.7,2.7,41,0.00,,---,0.00,VWS V14.01,2013-05-09 22:31:00,
2013-05-09 18:32:00,71.1,45.5,30.06,ENE,61,2.7,2.7,40,0.00,,---,0.00,VWS V14.01,2013-05-09 22:32:00,
2013-05-09 18:34:00,71.1,45.5,30.03,SSE,162,6.3,6.3,40,0.00,,---,0.00,VWS V14.01,2013-05-09 22:34:00,
2013-05-09 18:36:00,71.1,45.5,30.03,SSE,161,3.1,3.1,40,0.00,,---,0.00,VWS V14.01,2013-05-09 22:36:00,
2013-05-09 18:37:00,71.1,45.5,30.03,West,263,2.7,3.1,40,0.00,,---,0.00,VWS V14.01,2013-05-09 22:37:00,
2013-05-09 18:38:00,71.1,44.9,30.03,West,263,2.7,3.1,39,0.00,,---,0.00,VWS V14.01,2013-05-09 22:38:00,
2013-05-09 18:39:00,71.1,44.9,30.03,SE,132,6.3,6.3,39,0.00,,---,0.00,VWS V14.01,2013-05-09 22:39:00,
2013-05-09 18:41:00,71.1,44.9,30.03,SSE,152,3.6,3.6,39,0.00,,---,0.00,VWS V14.01,2013-05-09 22:41:00,
2013-05-09 18:42:00,71.1,44.9,30.03,SSE,152,3.6,3.6,39,0.00,,---,0.00,VWS V14.01,2013-05-09 22:42:00,
2013-05-09 18:43:00,71.1,44.9,30.03,SSE,147,2.2,3.6,39,0.00,,---,0.00,VWS V14.01,2013-05-09 22:43:00,
2013-05-09 18:44:00,70.9,45.4,30.03,SSE,147,2.2,2.2,40,0.00,,---,0.00,VWS V14.01,2013-05-09 22:44:00,
2013-05-09 18:46:00,70.9,45.4,30.03,WSW,247,2.2,2.2,40,0.00,,---,0.00,VWS V14.01,2013-05-09 22:46:00,
2013-05-09 18:47:00,70.9,45.4,30.03,West,261,0.0,2.2,40,0.00,,---,0.00,VWS V14.01,2013-05-09 22:47:00,
2013-05-09 18:48:00,70.9,45.4,30.03,West,261,0.0,2.2,40,0.00,,---,0.00,VWS V14.01,2013-05-09 22:48:00,
2013-05-09 18:49:00,70.9,45.4,30.03,West,261,0.0,0.0,40,0.00,,---,0.00,VWS V14.01,2013-05-09 22:49:00,
2013-05-09 18:51:00,70.9,45.4,30.06,NE,56,0.0,0.0,40,0.00,,---,0.00,VWS V14.01,2013-05-09 22:51:00,
2013-05-09 18:52:00,70.9,45.4,30.06,NE,56,0.0,0.0,40,0.00,,---,0.00,VWS V14.01,2013-05-09 22:52:00,
2013-05-09 18:53:00,70.9,45.4,30.06,NE,56,0.0,0.0,40,0.00,,---,0.00,VWS V14.01,2013-05-09 22:53:00,
2013-05-09 18:54:00,70.9,45.4,30.06,West,273,2.2,2.2,40,0.00,,---,0.00,VWS V14.01,2013-05-09 22:54:00,
2013-05-09 18:56:00,70.9,45.4,30.06,WSW,240,0.0,2.2,40,0.00,,---,0.00,VWS V14.01,2013-05-09 22:56:00,
2013-05-09 18:57:00,70.9,45.4,30.06,WSW,253,3.1,3.1,40,0.00,,---,0.00,VWS V14.01,2013-05-09 22:57:00,
2013-05-09 18:58:00,70.9,45.4,30.06,NNW,334,0.0,3.1,40,0.00,,---,0.00,VWS V14.01,2013-05-09 22:58:00,
2013-05-09 18:59:00,70.7,45.9,30.06,NNW,334,0.0,0.0,41,0.00,,---,0.00,VWS V14.01,2013-05-09 22:59:00,
2013-05-09 19:02:00,70.7,45.9,30.06,SW,217,0.0,0.0,41,0.00,,---,0.00,VWS V14.01,2013-05-09 23:02:00,
2013-05-09 19:03:00,70.7,45.9,30.06,ENE,70,0.0,0.0,41,0.00,,---,0.00,VWS V14.01,2013-05-09 23:03:00,
2013-05-09 19:04:00,70.7,45.9,30.06,SSW,195,0.0,0.0,41,0.00,,---,0.00,VWS V14.01,2013-05-09 23:04:00,
2013-05-09 19:07:00,70.7,45.9,30.06,SW,223,4.0,5.8,41,0.00,,---,0.00,VWS V14.01,2013-05-09 23:07:00,
2013-05-09 19:08:00,70.7,45.9,30.06,SW,223,4.0,4.0,41,0.00,,---,0.00,VWS V14.01,2013-05-09 23:08:00,
2013-05-09 19:09:00,70.7,45.9,30.06,SW,223,4.0,4.0,41,0.00,,---,0.00,VWS V14.01,2013-05-09 23:09:00,
2013-05-09 19:12:00,70.5,46.3,30.06,SSW,196,0.0,0.0,42,0.00,,---,0.00,VWS V14.01,2013-05-09 23:12:00,
2013-05-09 19:13:00,70.5,46.3,30.06,SSW,196,0.0,0.0,42,0.00,,---,0.00,VWS V14.01,2013-05-09 23:13:00,
2013-05-09 19:14:00,70.5,46.3,30.06,SSW,196,0.0,0.0,42,0.00,,---,0.00,VWS V14.01,2013-05-09 23:14:00,
2013-05-09 19:17:00,70.3,46.2,30.06,South,191,0.0,0.0,42,0.00,,---,0.00,VWS V14.01,2013-05-09 23:17:00,
2013-05-09 19:18:00,70.3,46.2,30.06,SSE,159,0.0,0.0,42,0.00,,---,0.00,VWS V14.01,2013-05-09 23:18:00,
2013-05-09 19:19:00,70.3,46.2,30.06,SSE,159,0.0,0.0,42,0.00,,---,0.00,VWS V14.01,2013-05-09 23:19:00,
2013-05-09 19:22:00,70.3,46.2,30.06,ESE,123,4.9,4.9,42,0.00,,---,0.00,VWS V14.01,2013-05-09 23:22:00,
2013-05-09 19:23:00,70.3,46.2,30.06,ESE,123,4.9,4.9,42,0.00,,---,0.00,VWS V14.01,2013-05-09 23:23:00,
2013-05-09 19:24:00,70.3,46.2,30.06,SSE,159,3.6,4.9,42,0.00,,---,0.00,VWS V14.01,2013-05-09 23:24:00,
2013-05-09 19:27:00,70.2,46.6,30.06,SSE,160,2.7,2.7,43,0.00,,---,0.00,VWS V14.01,2013-05-09 23:27:00,
2013-05-09 19:28:00,70.0,46.5,30.06,SSE,160,2.7,2.7,43,0.00,,---,0.00,VWS V14.01,2013-05-09 23:28:00,
2013-05-09 19:29:00,70.0,46.5,30.06,SW,234,0.0,0.0,43,0.00,,---,0.00,VWS V14.01,2013-05-09 23:29:00,
2013-05-09 19:32:00,70.0,46.5,30.06,WNW,286,4.0,4.0,43,0.00,,---,0.00,VWS V14.01,2013-05-09 23:32:00,
2013-05-09 19:33:00,70.0,46.5,30.06,WSW,244,0.0,4.0,43,0.00,,---,0.00,VWS V14.01,2013-05-09 23:33:00,
2013-05-09 19:34:00,70.0,46.5,30.06,WSW,244,0.0,0.0,43,0.00,,---,0.00,VWS V14.01,2013-05-09 23:34:00,
2013-05-09 19:37:00,69.4,46.6,30.06,WSW,244,0.0,0.0,44,0.00,,---,0.00,VWS V14.01,2013-05-09 23:37:00,
2013-05-09 19:38:00,69.4,46.6,30.06,WSW,251,2.7,2.7,44,0.00,,---,0.00,VWS V14.01,2013-05-09 23:38:00,
2013-05-09 19:39:00,69.3,46.4,30.06,South,173,0.0,0.0,44,0.00,,---,0.00,VWS V14.01,2013-05-09 23:39:00,
2013-05-09 19:42:00,69.1,46.3,30.06,SW,222,0.0,0.0,44,0.00,,---,0.00,VWS V14.01,2013-05-09 23:42:00,
2013-05-09 19:43:00,69.1,46.3,30.06,SW,222,0.0,0.0,44,0.00,,---,0.00,VWS V14.01,2013-05-09 23:43:00,
2013-05-09 19:44:00,68.9,46.7,30.06,SW,222,0.0,0.0,45,0.00,,---,0.00,VWS V14.01,2013-05-09 23:44:00,
2013-05-09 19:47:00,68.9,46.7,30.06,South,178,0.0,0.0,45,0.00,,---,0.00,VWS V14.01,2013-05-09 23:47:00,
2013-05-09 19:48:00,68.7,46.5,30.06,South,178,0.0,0.0,45,0.00,,---,0.00,VWS V14.01,2013-05-09 23:48:00,
2013-05-09 19:50:00,68.7,46.5,30.06,South,178,0.0,0.0,45,0.00,,---,0.00,VWS V14.01,2013-05-09 23:50:00,
2013-05-09 19:53:00,68.5,47.0,30.06,NW,310,0.0,0.0,46,0.00,,---,0.00,VWS V14.01,2013-05-09 23:53:00,
2013-05-09 19:55:00,68.5,47.0,30.06,WSW,238,0.0,0.0,46,0.00,,---,0.00,VWS V14.01,2013-05-09 23:55:00,
2013-05-09 19:58:00,68.5,47.0,30.06,SSW,204,0.0,0.0,46,0.00,,---,0.00,VWS V14.01,2013-05-09 23:58:00,
2013-05-09 20:00:00,68.2,47.8,30.06,NW,307,0.0,0.0,48,0.00,,---,0.00,VWS V14.01,2013-05-10 00:00:00,
2013-05-09 20:03:00,68.2,48.3,30.06,North,353,0.0,0.0,49,0.00,,---,0.00,VWS V14.01,2013-05-10 00:03:00,
2013-05-09 20:05:00,68.0,48.2,30.06,ESE,110,2.7,2.7,49,0.00,,---,0.00,VWS V14.01,2013-05-10 00:05:00,
2013-05-09 20:08:00,68.0,48.2,30.06,WNW,288,0.0,0.0,49,0.00,,---,0.00,VWS V14.01,2013-05-10 00:08:00,
2013-05-09 20:10:00,68.0,48.2,30.06,SE,132,3.6,3.6,49,0.00,,---,0.00,VWS V14.01,2013-05-10 00:10:00,
2013-05-09 20:13:00,67.8,48.5,30.06,West,267,0.0,3.6,50,0.00,,---,0.00,VWS V14.01,2013-05-10 00:13:00,
2013-05-09 20:15:00,67.8,48.5,30.06,WSW,242,0.0,0.0,50,0.00,,---,0.00,VWS V14.01,2013-05-10 00:15:00,
2013-05-09 20:18:00,67.6,48.4,30.06,SSW,202,2.7,2.7,50,0.00,,---,0.00,VWS V14.01,2013-05-10 00:18:00,
2013-05-09 20:19:00,67.6,48.4,30.06,ESE,109,0.0,2.7,50,0.00,,---,0.00,VWS V14.01,2013-05-10 00:19:00,
2013-05-09 20:20:00,67.6,48.4,30.09,ESE,109,0.0,0.0,50,0.00,,---,0.00,VWS V14.01,2013-05-10 00:20:00,
2013-05-09 20:23:00,67.6,48.4,30.09,NNW,335,0.0,0.0,50,0.00,,---,0.00,VWS V14.01,2013-05-10 00:23:00,
2013-05-09 20:24:00,67.5,48.7,30.09,NNW,344,0.0,0.0,51,0.00,,---,0.00,VWS V14.01,2013-05-10 00:24:00,
2013-05-09 20:25:00,67.5,48.7,30.09,SW,217,0.0,0.0,51,0.00,,---,0.00,VWS V14.01,2013-05-10 00:25:00,
2013-05-09 20:28:00,67.5,48.7,30.09,SW,221,0.0,0.0,51,0.00,,---,0.00,VWS V14.01,2013-05-10 00:28:00,
2013-05-09 20:29:00,67.5,48.7,30.09,SW,221,0.0,0.0,51,0.00,,---,0.00,VWS V14.01,2013-05-10 00:29:00,
2013-05-09 20:30:00,67.5,48.7,30.09,WNW,292,0.0,0.0,51,0.00,,---,0.00,VWS V14.01,2013-05-10 00:30:00,
2013-05-09 20:33:00,67.3,49.1,30.09,NW,318,0.0,0.0,52,0.00,,---,0.00,VWS V14.01,2013-05-10 00:33:00,
2013-05-09 20:34:00,67.3,49.1,30.09,NW,318,0.0,0.0,52,0.00,,---,0.00,VWS V14.01,2013-05-10 00:34:00,
2013-05-09 20:35:00,67.3,49.1,30.09,SW,229,0.0,0.0,52,0.00,,---,0.00,VWS V14.01,2013-05-10 00:35:00,
2013-05-09 20:38:00,67.1,48.9,30.09,NW,324,0.0,0.0,52,0.00,,---,0.00,VWS V14.01,2013-05-10 00:38:00,
2013-05-09 20:39:00,67.1,48.9,30.09,NW,324,0.0,0.0,52,0.00,,---,0.00,VWS V14.01,2013-05-10 00:39:00,
2013-05-09 20:40:00,67.1,48.9,30.09,WNW,299,0.0,0.0,52,0.00,,---,0.00,VWS V14.01,2013-05-10 00:40:00,
2013-05-09 20:43:00,67.1,49.4,30.09,SSW,208,0.0,0.0,53,0.00,,---,0.00,VWS V14.01,2013-05-10 00:43:00,
2013-05-09 20:44:00,67.1,49.4,30.09,SSW,208,0.0,0.0,53,0.00,,---,0.00,VWS V14.01,2013-05-10 00:44:00,
2013-05-09 20:45:00,67.1,49.4,30.09,West,276,0.0,0.0,53,0.00,,---,0.00,VWS V14.01,2013-05-10 00:45:00,
2013-05-09 20:48:00,66.9,49.2,30.09,WNW,291,0.0,0.0,53,0.00,,---,0.00,VWS V14.01,2013-05-10 00:48:00,
2013-05-09 20:49:00,66.9,49.2,30.09,WNW,291,0.0,0.0,53,0.00,,---,0.00,VWS V14.01,2013-05-10 00:49:00,
2013-05-09 20:50:00,66.9,49.2,30.09,WNW,291,0.0,0.0,53,0.00,,---,0.00,VWS V14.01,2013-05-10 00:50:00,
2013-05-09 20:53:00,66.9,49.2,30.09,WNW,286,0.0,0.0,53,0.00,,---,0.00,VWS V14.01,2013-05-10 00:53:00,
2013-05-09 20:54:00,66.9,49.2,30.09,WNW,286,0.0,0.0,53,0.00,,---,0.00,VWS V14.01,2013-05-10 00:54:00,
2013-05-09 20:55:00,66.9,49.2,30.09,WNW,286,0.0,0.0,53,0.00,,---,0.00,VWS V14.01,2013-05-10 00:55:00,
2013-05-09 20:58:00,66.9,49.2,30.09,SW,235,0.0,0.0,53,0.00,,---,0.00,VWS V14.01,2013-05-10 00:58:00,
2013-05-09 20:59:00,66.9,49.2,30.09,West,275,4.0,4.0,53,0.00,,---,0.00,VWS V14.01,2013-05-10 00:59:00,
2013-05-09 21:00:00,66.6,49.4,30.09,West,275,4.0,4.0,54,0.00,,---,0.00,VWS V14.01,2013-05-10 01:00:00,
2013-05-09 21:03:00,66.6,49.4,30.09,NNE,27,0.0,0.0,54,0.00,,---,0.00,VWS V14.01,2013-05-10 01:03:00,
2013-05-09 21:04:00,66.6,49.4,30.09,NNE,27,0.0,0.0,54,0.00,,---,0.00,VWS V14.01,2013-05-10 01:04:00,
2013-05-09 21:05:00,66.6,49.4,30.09,NNE,27,0.0,0.0,54,0.00,,---,0.00,VWS V14.01,2013-05-10 01:05:00,
2013-05-09 21:08:00,66.4,49.7,30.09,West,267,0.0,0.0,55,0.00,,---,0.00,VWS V14.01,2013-05-10 01:08:00,
2013-05-09 21:09:00,66.4,49.7,30.09,West,267,0.0,0.0,55,0.00,,---,0.00,VWS V14.01,2013-05-10 01:09:00,
2013-05-09 21:10:00,66.4,50.2,30.09,WSW,240,0.0,0.0,56,0.00,,---,0.00,VWS V14.01,2013-05-10 01:10:00,
2013-05-09 21:13:00,66.4,50.2,30.09,WSW,240,0.0,0.0,56,0.00,,---,0.00,VWS V14.01,2013-05-10 01:13:00,
2013-05-09 21:14:00,66.4,50.2,30.09,WSW,240,0.0,0.0,56,0.00,,---,0.00,VWS V14.01,2013-05-10 01:14:00,
2013-05-09 21:15:00,66.4,50.2,30.09,WSW,240,0.0,0.0,56,0.00,,---,0.00,VWS V14.01,2013-05-10 01:15:00,
2013-05-09 21:19:00,66.2,50.1,30.09,SW,226,0.0,0.0,56,0.00,,---,0.00,VWS V14.01,2013-05-10 01:19:00,
2013-05-09 21:21:00,66.2,50.1,30.09,WSW,250,0.0,0.0,56,0.00,,---,0.00,VWS V14.01,2013-05-10 01:21:00,
2013-05-09 21:24:00,66.2,50.1,30.09,WSW,241,0.0,0.0,56,0.00,,---,0.00,VWS V14.01,2013-05-10 01:24:00,
2013-05-09 21:25:00,66.0,50.4,30.09,WSW,241,0.0,0.0,57,0.00,,---,0.00,VWS V14.01,2013-05-10 01:25:00,
2013-05-09 21:26:00,66.0,50.4,30.09,WSW,241,0.0,0.0,57,0.00,,---,0.00,VWS V14.01,2013-05-10 01:26:00,
2013-05-09 21:29:00,66.0,50.8,30.09,WNW,303,0.0,0.0,58,0.00,,---,0.00,VWS V14.01,2013-05-10 01:29:00,
2013-05-09 21:30:00,66.0,50.8,30.09,WNW,303,0.0,0.0,58,0.00,,---,0.00,VWS V14.01,2013-05-10 01:30:00,
2013-05-09 21:31:00,66.0,50.8,30.09,WNW,303,0.0,0.0,58,0.00,,---,0.00,VWS V14.01,2013-05-10 01:31:00,
2013-05-09 21:34:00,65.8,50.7,30.09,WNW,295,0.0,0.0,58,0.00,,---,0.00,VWS V14.01,2013-05-10 01:34:00,
2013-05-09 21:35:00,65.8,51.1,30.09,WNW,295,0.0,0.0,59,0.00,,---,0.00,VWS V14.01,2013-05-10 01:35:00,
2013-05-09 21:36:00,65.8,51.1,30.09,WNW,295,0.0,0.0,59,0.00,,---,0.00,VWS V14.01,2013-05-10 01:36:00,
2013-05-09 21:39:00,65.8,51.1,30.09,West,266,0.0,0.0,59,0.00,,---,0.00,VWS V14.01,2013-05-10 01:39:00,
2013-05-09 21:40:00,65.8,51.1,30.09,West,266,0.0,0.0,59,0.00,,---,0.00,VWS V14.01,2013-05-10 01:40:00,
2013-05-09 21:41:00,65.8,51.1,30.09,WNW,300,0.0,0.0,59,0.00,,---,0.00,VWS V14.01,2013-05-10 01:41:00,
2013-05-09 21:44:00,65.8,51.1,30.09,WNW,300,0.0,0.0,59,0.00,,---,0.00,VWS V14.01,2013-05-10 01:44:00,
2013-05-09 21:45:00,65.8,51.1,30.09,West,274,0.0,0.0,59,0.00,,---,0.00,VWS V14.01,2013-05-10 01:45:00,
2013-05-09 21:46:00,65.8,51.1,30.09,West,274,0.0,0.0,59,0.00,,---,0.00,VWS V14.01,2013-05-10 01:46:00,
2013-05-09 21:49:00,65.7,51.4,30.09,SE,141,0.0,0.0,60,0.00,,---,0.00,VWS V14.01,2013-05-10 01:49:00,
2013-05-09 21:50:00,65.7,51.4,30.09,SE,141,0.0,0.0,60,0.00,,---,0.00,VWS V14.01,2013-05-10 01:50:00,
2013-05-09 21:51:00,65.7,51.4,30.09,SW,216,0.0,0.0,60,0.00,,---,0.00,VWS V14.01,2013-05-10 01:51:00,
2013-05-09 21:54:00,65.7,51.4,30.09,SSW,208,0.0,0.0,60,0.00,,---,0.00,VWS V14.01,2013-05-10 01:54:00,
2013-05-09 21:55:00,65.7,51.4,30.09,SSW,208,0.0,0.0,60,0.00,,---,0.00,VWS V14.01,2013-05-10 01:55:00,
2013-05-09 21:56:00,65.7,51.4,30.09,West,271,0.0,0.0,60,0.00,,---,0.00,VWS V14.01,2013-05-10 01:56:00,
2013-05-09 21:59:00,65.7,51.9,30.09,West,276,0.0,0.0,61,0.00,,---,0.00,VWS V14.01,2013-05-10 01:59:00,
2013-05-09 22:00:00,65.7,51.9,30.09,West,276,0.0,0.0,61,0.00,,---,0.00,VWS V14.01,2013-05-10 02:00:00,
2013-05-09 22:01:00,65.7,51.9,30.09,West,276,0.0,0.0,61,0.00,,---,0.00,VWS V14.01,2013-05-10 02:01:00,
2013-05-09 22:04:00,65.7,51.9,30.09,West,281,0.0,0.0,61,0.00,,---,0.00,VWS V14.01,2013-05-10 02:04:00,
2013-05-09 22:05:00,65.7,51.9,30.09,West,281,0.0,0.0,61,0.00,,---,0.00,VWS V14.01,2013-05-10 02:05:00,
2013-05-09 22:06:00,65.7,51.9,30.09,West,281,0.0,0.0,61,0.00,,---,0.00,VWS V14.01,2013-05-10 02:06:00,
2013-05-09 22:09:00,65.5,52.1,30.09,West,281,0.0,0.0,62,0.00,,---,0.00,VWS V14.01,2013-05-10 02:09:00,
2013-05-09 22:10:00,65.5,52.1,30.09,West,281,0.0,0.0,62,0.00,,---,0.00,VWS V14.01,2013-05-10 02:10:00,
2013-05-09 22:11:00,65.5,52.1,30.09,West,281,0.0,0.0,62,0.00,,---,0.00,VWS V14.01,2013-05-10 02:11:00,
2013-05-09 22:14:00,65.5,52.1,30.09,SE,139,0.0,0.0,62,0.00,,---,0.00,VWS V14.01,2013-05-10 02:14:00,
2013-05-09 22:15:00,65.5,52.1,30.09,SE,139,0.0,0.0,62,0.00,,---,0.00,VWS V14.01,2013-05-10 02:15:00,
2013-05-09 22:16:00,65.3,52.0,30.09,SE,139,0.0,0.0,62,0.00,,---,0.00,VWS V14.01,2013-05-10 02:16:00,
2013-05-09 22:19:00,65.3,52.4,30.09,South,187,0.0,0.0,63,0.00,,---,0.00,VWS V14.01,2013-05-10 02:19:00,
2013-05-09 22:20:00,65.3,52.4,30.09,South,187,0.0,0.0,63,0.00,,---,0.00,VWS V14.01,2013-05-10 02:20:00,
2013-05-09 22:21:00,65.3,52.4,30.09,South,187,0.0,0.0,63,0.00,,---,0.00,VWS V14.01,2013-05-10 02:21:00,
2013-05-09 22:25:00,65.1,52.2,30.09,South,186,0.0,0.0,63,0.00,,---,0.00,VWS V14.01,2013-05-10 02:25:00,
2013-05-09 22:26:00,65.1,52.2,30.09,South,186,0.0,0.0,63,0.00,,---,0.00,VWS V14.01,2013-05-10 02:26:00,
2013-05-09 22:30:00,65.1,52.2,30.09,South,186,0.0,0.0,63,0.00,,---,0.00,VWS V14.01,2013-05-10 02:30:00,
2013-05-09 22:31:00,65.1,52.2,30.09,South,175,0.0,0.0,63,0.00,,---,0.00,VWS V14.01,2013-05-10 02:31:00,
2013-05-09 22:35:00,65.1,53.1,30.12,South,175,0.0,0.0,65,0.00,,---,0.00,VWS V14.01,2013-05-10 02:35:00,
2013-05-09 22:36:00,65.1,53.1,30.12,South,175,0.0,0.0,65,0.00,,---,0.00,VWS V14.01,2013-05-10 02:36:00,
2013-05-09 22:37:00,65.1,53.1,30.12,South,175,0.0,0.0,65,0.00,,---,0.00,VWS V14.01,2013-05-10 02:37:00,
2013-05-09 22:40:00,65.1,53.1,30.12,South,175,0.0,0.0,65,0.00,,---,0.00,VWS V14.01,2013-05-10 02:40:00,
2013-05-09 22:41:00,65.1,53.5,30.12,South,175,0.0,0.0,66,0.00,,---,0.00,VWS V14.01,2013-05-10 02:41:00,
2013-05-09 22:42:00,65.1,53.5,30.12,South,175,0.0,0.0,66,0.00,,---,0.00,VWS V14.01,2013-05-10 02:42:00,
2013-05-09 22:45:00,65.3,54.1,30.12,South,175,0.0,0.0,67,0.00,,---,0.00,VWS V14.01,2013-05-10 02:45:00,
2013-05-09 22:46:00,65.3,54.1,30.12,South,175,0.0,0.0,67,0.00,,---,0.00,VWS V14.01,2013-05-10 02:46:00,
2013-05-09 22:47:00,65.3,54.1,30.12,South,175,0.0,0.0,67,0.00,,---,0.00,VWS V14.01,2013-05-10 02:47:00,
2013-05-09 22:50:00,65.1,53.9,30.12,East,97,0.0,0.0,67,0.00,,---,0.00,VWS V14.01,2013-05-10 02:50:00,
2013-05-09 22:51:00,65.1,53.9,30.12,East,97,0.0,0.0,67,0.00,,---,0.00,VWS V14.01,2013-05-10 02:51:00,
2013-05-09 22:52:00,65.1,53.9,30.09,East,97,0.0,0.0,67,0.00,,---,0.00,VWS V14.01,2013-05-10 02:52:00,
2013-05-09 22:55:00,65.1,53.9,30.09,West,275,0.0,0.0,67,0.00,,---,0.00,VWS V14.01,2013-05-10 02:55:00,
2013-05-09 22:56:00,65.1,53.9,30.09,West,275,0.0,0.0,67,0.00,,---,0.00,VWS V14.01,2013-05-10 02:56:00,
2013-05-09 22:57:00,65.1,53.9,30.09,SSE,164,0.0,0.0,67,0.00,,---,0.00,VWS V14.01,2013-05-10 02:57:00,
2013-05-09 23:00:00,65.1,54.3,30.09,SSE,164,0.0,0.0,68,0.00,,---,0.00,VWS V14.01,2013-05-10 03:00:00,
2013-05-09 23:01:00,65.1,54.3,30.09,SSE,164,0.0,0.0,68,0.00,,---,0.00,VWS V14.01,2013-05-10 03:01:00,
2013-05-09 23:02:00,65.1,54.3,30.09,SSE,164,0.0,0.0,68,0.00,,---,0.00,VWS V14.01,2013-05-10 03:02:00,
2013-05-09 23:05:00,65.1,54.3,30.09,SSE,164,0.0,0.0,68,0.00,,---,0.00,VWS V14.01,2013-05-10 03:05:00,
2013-05-09 23:06:00,65.1,54.3,30.09,South,186,0.0,0.0,68,0.00,,---,0.00,VWS V14.01,2013-05-10 03:06:00,
2013-05-09 23:07:00,65.1,54.3,30.09,South,186,0.0,0.0,68,0.00,,---,0.00,VWS V14.01,2013-05-10 03:07:00,
2013-05-09 23:08:00,64.9,54.5,30.09,South,186,0.0,0.0,69,0.00,,---,0.00,VWS V14.01,2013-05-10 03:08:00,
2013-05-09 23:10:00,64.8,54.4,30.09,South,186,0.0,0.0,69,0.00,,---,0.00,VWS V14.01,2013-05-10 03:10:00,
2013-05-09 23:11:00,64.8,54.4,30.09,South,186,0.0,0.0,69,0.00,,---,0.00,VWS V14.01,2013-05-10 03:11:00,
2013-05-09 23:12:00,64.8,54.4,30.09,South,186,0.0,0.0,69,0.00,,---,0.00,VWS V14.01,2013-05-10 03:12:00,
2013-05-09 23:13:00,64.8,54.4,30.09,South,186,0.0,0.0,69,0.00,,---,0.00,VWS V14.01,2013-05-10 03:13:00,
2013-05-09 23:15:00,64.8,54.4,30.09,South,186,0.0,0.0,69,0.00,,---,0.00,VWS V14.01,2013-05-10 03:15:00,
2013-05-09 23:16:00,64.8,54.8,30.09,South,186,0.0,0.0,70,0.00,,---,0.00,VWS V14.01,2013-05-10 03:16:00,
2013-05-09 23:17:00,64.8,54.8,30.09,South,186,0.0,0.0,70,0.00,,---,0.00,VWS V14.01,2013-05-10 03:17:00,
2013-05-09 23:18:00,64.8,54.8,30.09,South,186,0.0,0.0,70,0.00,,---,0.00,VWS V14.01,2013-05-10 03:18:00,
2013-05-09 23:20:00,64.8,54.8,30.09,South,186,0.0,0.0,70,0.00,,---,0.00,VWS V14.01,2013-05-10 03:20:00,
2013-05-09 23:21:00,64.8,54.8,30.09,South,186,0.0,0.0,70,0.00,,---,0.00,VWS V14.01,2013-05-10 03:21:00,
2013-05-09 23:22:00,64.8,54.8,30.09,South,186,0.0,0.0,70,0.00,,---,0.00,VWS V14.01,2013-05-10 03:22:00,
2013-05-09 23:23:00,64.8,54.8,30.09,South,186,0.0,0.0,70,0.00,,---,0.00,VWS V14.01,2013-05-10 03:23:00,
2013-05-09 23:25:00,64.4,54.0,30.09,South,186,0.0,0.0,69,0.00,,---,0.00,VWS V14.01,2013-05-10 03:25:00,
2013-05-09 23:26:00,64.4,54.0,30.09,South,186,0.0,0.0,69,0.00,,---,0.00,VWS V14.01,2013-05-10 03:26:00,
2013-05-09 23:27:00,64.4,54.0,30.09,South,186,0.0,0.0,69,0.00,,---,0.00,VWS V14.01,2013-05-10 03:27:00,
2013-05-09 23:28:00,64.4,54.0,30.09,South,186,0.0,0.0,69,0.00,,---,0.00,VWS V14.01,2013-05-10 03:28:00,
2013-05-09 23:30:00,64.4,54.0,30.09,West,275,0.0,0.0,69,0.00,,---,0.00,VWS V14.01,2013-05-10 03:30:00,
2013-05-09 23:31:00,64.4,54.0,30.09,West,275,0.0,0.0,69,0.00,,---,0.00,VWS V14.01,2013-05-10 03:31:00,
2013-05-09 23:32:00,64.2,54.6,30.09,West,275,0.0,0.0,71,0.00,,---,0.00,VWS V14.01,2013-05-10 03:32:00,
2013-05-09 23:33:00,64.2,54.6,30.09,West,275,0.0,0.0,71,0.00,,---,0.00,VWS V14.01,2013-05-10 03:33:00,
2013-05-09 23:35:00,64.2,54.6,30.12,West,275,0.0,0.0,71,0.00,,---,0.00,VWS V14.01,2013-05-10 03:35:00,
2013-05-09 23:36:00,64.2,54.6,30.12,West,275,0.0,0.0,71,0.00,,---,0.00,VWS V14.01,2013-05-10 03:36:00,
2013-05-09 23:37:00,64.2,54.6,30.12,West,275,0.0,0.0,71,0.00,,---,0.00,VWS V14.01,2013-05-10 03:37:00,
2013-05-09 23:38:00,64.2,54.6,30.12,West,275,0.0,0.0,71,0.00,,---,0.00,VWS V14.01,2013-05-10 03:38:00,
2013-05-09 23:41:00,64.2,54.6,30.12,West,275,0.0,0.0,71,0.00,,---,0.00,VWS V14.01,2013-05-10 03:41:00,
2013-05-09 23:42:00,64.2,54.6,30.12,West,275,0.0,0.0,71,0.00,,---,0.00,VWS V14.01,2013-05-10 03:42:00,
2013-05-09 23:44:00,64.2,54.6,30.12,West,275,0.0,0.0,71,0.00,,---,0.00,VWS V14.01,2013-05-10 03:44:00,
2013-05-09 23:46:00,64.0,54.8,30.12,West,275,0.0,0.0,72,0.00,,---,0.00,VWS V14.01,2013-05-10 03:46:00,
2013-05-09 23:47:00,64.0,54.8,30.12,West,275,0.0,0.0,72,0.00,,---,0.00,VWS V14.01,2013-05-10 03:47:00,
2013-05-09 23:49:00,64.0,54.8,30.12,West,280,0.0,0.0,72,0.00,,---,0.00,VWS V14.01,2013-05-10 03:49:00,
2013-05-09 23:51:00,63.9,54.3,30.12,West,280,0.0,0.0,71,0.00,,---,0.00,VWS V14.01,2013-05-10 03:51:00,
2013-05-09 23:52:00,63.9,54.7,30.12,West,280,0.0,0.0,72,0.00,,---,0.00,VWS V14.01,2013-05-10 03:52:00,
2013-05-09 23:54:00,63.9,54.7,30.12,West,280,0.0,0.0,72,0.00,,---,0.00,VWS V14.01,2013-05-10 03:54:00,
2013-05-09 23:56:00,63.7,54.5,30.12,West,280,0.0,0.0,72,0.00,,---,0.00,VWS V14.01,2013-05-10 03:56:00,
2013-05-09 23:57:00,63.7,54.5,30.12,West,280,0.0,0.0,72,0.00,,---,0.00,VWS V14.01,2013-05-10 03:57:00,
2013-05-09 23:59:00,63.5,54.3,30.12,West,280,0.0,0.0,72,0.00,,---,0.00,VWS V14.01,2013-05-10 03:59:00,